Time,TemperatureF,DewpointF,PressureIn,WindDirection,WindDirectionDegrees,WindSpeedMPH,WindSpeedGustMPH,Humidity,HourlyPrecipIn,Conditions,Clouds,dailyrainin,SoftwareType,DateUTC
2013-06-18 00:01:00,82.7,75.0,30.08,SE,141,7.4,9.9,78,0.00,,,0.00,TxWx,2013-06-18 04:01:00,
2013-06-18 00:02:00,82.9,75.0,30.08,SSE,163,9.3,9.3,78,0.00,,,0.00,TxWx,2013-06-18 04:02:00,
2013-06-18 00:06:00,82.8,75.0,30.08,SSE,163,7.4,7.4,78,0.00,,,0.00,TxWx,2013-06-18 04:06:00,
2013-06-18 00:07:00,82.8,75.0,30.08,SE,141,8.7,8.7,78,0.00,,,0.00,TxWx,2013-06-18 04:07:00,
2013-06-18 00:11:00,82.9,75.0,30.08,SE,141,8.0,8.0,78,0.00,,,0.00,TxWx,2013-06-18 04:11:00,
2013-06-18 00:12:00,82.8,75.0,30.08,SSE,163,8.0,8.0,78,0.00,,,0.00,TxWx,2013-06-18 04:12:00,
2013-06-18 00:14:00,82.8,75.0,30.08,SE,141,9.3,9.3,78,0.00,,,0.00,TxWx,2013-06-18 04:14:00,
2013-06-18 00:16:00,82.7,75.0,30.08,SE,141,10.5,10.5,78,0.00,,,0.00,TxWx,2013-06-18 04:16:00,
2013-06-18 00:17:00,82.7,75.0,30.08,SE,141,8.7,9.9,78,0.00,,,0.00,TxWx,2013-06-18 04:17:00,
2013-06-18 00:19:00,82.6,75.0,30.08,East,96,7.4,8.7,78,0.00,,,0.00,TxWx,2013-06-18 04:19:00,
2013-06-18 00:20:00,82.6,75.0,30.08,ESE,118,11.1,11.1,77,0.00,,,0.00,TxWx,2013-06-18 04:20:00,
2013-06-18 00:22:00,82.7,75.0,30.07,SSE,163,9.3,9.9,77,0.00,,,0.00,TxWx,2013-06-18 04:22:00,
2013-06-18 00:24:00,82.8,75.0,30.07,East,96,11.1,11.1,77,0.00,,,0.00,TxWx,2013-06-18 04:24:00,
2013-06-18 00:28:00,82.8,75.0,30.08,SE,141,6.8,8.0,78,0.00,,,0.00,TxWx,2013-06-18 04:28:00,
2013-06-18 00:29:00,82.9,75.0,30.08,SSE,163,9.3,9.3,78,0.00,,,0.00,TxWx,2013-06-18 04:29:00,
2013-06-18 00:30:00,82.9,75.0,30.08,SSE,163,4.3,5.6,78,0.00,,,0.00,TxWx,2013-06-18 04:30:00,
2013-06-18 00:35:00,82.9,75.0,30.08,SE,141,9.3,9.3,78,0.00,,,0.00,TxWx,2013-06-18 04:35:00,
2013-06-18 00:36:00,82.9,75.0,30.08,SE,141,9.9,9.9,78,0.00,,,0.00,TxWx,2013-06-18 04:36:00,
2013-06-18 00:37:00,82.7,75.0,30.08,SSE,163,9.9,9.9,78,0.00,,,0.00,TxWx,2013-06-18 04:37:00,
2013-06-18 00:41:00,82.8,75.0,30.08,SSE,163,3.7,5.0,78,0.00,,,0.00,TxWx,2013-06-18 04:41:00,
2013-06-18 00:43:00,82.7,75.0,30.08,South,186,2.5,3.1,78,0.00,,,0.00,TxWx,2013-06-18 04:43:00,
2013-06-18 00:45:00,82.7,75.0,30.08,SSE,163,4.3,4.3,78,0.00,,,0.00,TxWx,2013-06-18 04:45:00,
2013-06-18 00:46:00,82.7,75.0,30.08,SSE,163,5.6,6.2,78,0.00,,,0.00,TxWx,2013-06-18 04:46:00,
2013-06-18 00:47:00,82.7,75.0,30.08,South,186,7.4,7.4,78,0.00,,,0.00,TxWx,2013-06-18 04:47:00,
2013-06-18 00:50:00,83.0,75.0,30.08,SE,141,6.8,8.0,78,0.00,,,0.00,TxWx,2013-06-18 04:50:00,
2013-06-18 00:51:00,83.0,75.0,30.08,ESE,118,6.8,6.8,78,0.00,,,0.00,TxWx,2013-06-18 04:51:00,
2013-06-18 00:52:00,83.0,76.0,30.08,SE,141,8.7,8.7,79,0.00,,,0.00,TxWx,2013-06-18 04:52:00,
2013-06-18 00:53:00,82.8,75.0,30.08,SSE,163,8.7,8.7,78,0.00,,,0.00,TxWx,2013-06-18 04:53:00,
2013-06-18 00:54:00,82.7,75.0,30.08,SSE,163,6.2,6.8,78,0.00,,,0.00,TxWx,2013-06-18 04:54:00,
2013-06-18 00:55:00,82.9,76.0,30.08,SSE,163,5.6,5.6,79,0.00,,,0.00,TxWx,2013-06-18 04:55:00,
2013-06-18 00:56:00,82.6,75.0,30.08,SSE,163,7.4,7.4,78,0.00,,,0.00,TxWx,2013-06-18 04:56:00,
2013-06-18 00:58:00,82.6,75.0,30.08,SSE,163,5.0,5.6,78,0.00,,,0.00,TxWx,2013-06-18 04:58:00,
2013-06-18 00:59:00,82.6,75.0,30.08,SSW,208,3.7,4.3,78,0.00,,,0.00,TxWx,2013-06-18 04:59:00,
2013-06-18 01:01:00,82.5,75.0,30.08,SE,141,4.3,4.3,78,0.00,,,0.00,TxWx,2013-06-18 05:01:00,
2013-06-18 01:03:00,82.7,75.0,30.08,SSE,163,9.3,9.3,78,0.00,,,0.00,TxWx,2013-06-18 05:03:00,
2013-06-18 01:04:00,82.7,75.0,30.08,SSE,163,6.8,6.8,78,0.00,,,0.00,TxWx,2013-06-18 05:04:00,
2013-06-18 01:05:00,82.7,75.0,30.07,SE,141,7.4,8.7,78,0.00,,,0.00,TxWx,2013-06-18 05:05:00,
2013-06-18 01:06:00,82.5,75.0,30.07,SSE,163,8.7,9.9,78,0.00,,,0.00,TxWx,2013-06-18 05:06:00,
2013-06-18 01:08:00,82.8,75.0,30.07,South,186,5.0,5.6,78,0.00,,,0.00,TxWx,2013-06-18 05:08:00,
2013-06-18 01:09:00,82.7,75.0,30.07,SE,141,6.2,7.4,78,0.00,,,0.00,TxWx,2013-06-18 05:09:00,
2013-06-18 01:10:00,82.5,75.0,30.07,ESE,118,3.1,3.7,78,0.00,,,0.00,TxWx,2013-06-18 05:10:00,
2013-06-18 01:11:00,82.6,75.0,30.07,SSW,208,3.1,3.1,78,0.00,,,0.00,TxWx,2013-06-18 05:11:00,
2013-06-18 01:12:00,82.6,75.0,30.07,SSE,163,3.7,5.0,78,0.00,,,0.00,TxWx,2013-06-18 05:12:00,
2013-06-18 01:14:00,82.8,75.0,30.07,SSE,163,5.6,5.6,78,0.00,,,0.00,TxWx,2013-06-18 05:14:00,
2013-06-18 01:15:00,82.7,75.0,30.07,SE,141,8.7,8.7,78,0.00,,,0.00,TxWx,2013-06-18 05:15:00,
2013-06-18 01:17:00,82.8,75.0,30.07,SE,141,6.2,6.2,78,0.00,,,0.00,TxWx,2013-06-18 05:17:00,
2013-06-18 01:19:00,82.5,75.0,30.07,SSE,163,8.0,8.7,78,0.00,,,0.00,TxWx,2013-06-18 05:19:00,
2013-06-18 01:20:00,82.5,75.0,30.07,SE,141,7.4,7.4,77,0.00,,,0.00,TxWx,2013-06-18 05:20:00,
2013-06-18 01:22:00,82.7,75.0,30.07,SE,141,8.0,8.0,78,0.00,,,0.00,TxWx,2013-06-18 05:22:00,
2013-06-18 01:23:00,82.7,75.0,30.07,SE,141,7.4,7.4,77,0.00,,,0.00,TxWx,2013-06-18 05:23:00,
2013-06-18 01:25:00,82.5,75.0,30.07,SE,141,7.4,8.0,77,0.00,,,0.00,TxWx,2013-06-18 05:25:00,
2013-06-18 01:26:00,82.6,75.0,30.07,SSE,163,8.7,8.7,77,0.00,,,0.00,TxWx,2013-06-18 05:26:00,
2013-06-18 01:27:00,82.6,75.0,30.07,South,186,8.0,8.7,77,0.00,,,0.00,TxWx,2013-06-18 05:27:00,
2013-06-18 01:28:00,82.7,75.0,30.07,SSE,163,6.8,6.8,77,0.00,,,0.00,TxWx,2013-06-18 05:28:00,
2013-06-18 01:29:00,82.8,75.0,30.07,ESE,118,7.4,7.4,77,0.00,,,0.00,TxWx,2013-06-18 05:29:00,
2013-06-18 01:32:00,82.6,75.0,30.07,SE,141,5.6,5.6,77,0.00,,,0.00,TxWx,2013-06-18 05:32:00,
2013-06-18 01:33:00,82.6,75.0,30.07,SSE,163,5.6,6.2,77,0.00,,,0.00,TxWx,2013-06-18 05:33:00,
2013-06-18 01:34:00,82.8,75.0,30.07,South,186,3.1,3.1,77,0.00,,,0.00,TxWx,2013-06-18 05:34:00,
2013-06-18 01:35:00,82.7,75.0,30.07,South,186,5.6,5.6,77,0.00,,,0.00,TxWx,2013-06-18 05:35:00,
2013-06-18 01:38:00,82.5,75.0,30.07,SSE,163,7.4,7.4,77,0.00,,,0.00,TxWx,2013-06-18 05:38:00,
2013-06-18 01:40:00,82.7,75.0,30.07,SSE,163,8.0,8.0,77,0.00,,,0.00,TxWx,2013-06-18 05:40:00,
2013-06-18 01:41:00,82.7,75.0,30.07,SSE,163,6.2,8.0,77,0.00,,,0.00,TxWx,2013-06-18 05:41:00,
2013-06-18 01:43:00,82.8,75.0,30.07,SSE,163,2.5,3.1,77,0.00,,,0.00,TxWx,2013-06-18 05:43:00,
2013-06-18 01:45:00,82.5,75.0,30.07,ESE,118,4.3,4.3,77,0.00,,,0.00,TxWx,2013-06-18 05:45:00,
2013-06-18 01:47:00,82.6,75.0,30.07,SSE,163,8.0,8.7,77,0.00,,,0.00,TxWx,2013-06-18 05:47:00,
2013-06-18 01:50:00,82.6,75.0,30.06,ESE,118,6.8,6.8,77,0.00,,,0.00,TxWx,2013-06-18 05:50:00,
2013-06-18 01:51:00,82.7,75.0,30.06,SE,141,6.2,7.4,77,0.00,,,0.00,TxWx,2013-06-18 05:51:00,
2013-06-18 01:52:00,82.8,75.0,30.06,SE,141,5.0,5.0,77,0.00,,,0.00,TxWx,2013-06-18 05:52:00,
2013-06-18 01:54:00,82.8,75.0,30.06,SSE,163,5.6,5.6,77,0.00,,,0.00,TxWx,2013-06-18 05:54:00,
2013-06-18 01:57:00,82.7,75.0,30.06,SSE,163,7.4,7.4,78,0.00,,,0.00,TxWx,2013-06-18 05:57:00,
2013-06-18 01:58:00,82.3,74.0,30.06,SE,141,8.7,9.3,77,0.00,,,0.00,TxWx,2013-06-18 05:58:00,
2013-06-18 01:59:00,82.4,74.0,30.06,SSE,163,8.0,8.0,77,0.00,,,0.00,TxWx,2013-06-18 05:59:00,
2013-06-18 02:02:00,82.5,74.0,30.06,SSE,163,8.0,10.5,77,0.00,,,0.00,TxWx,2013-06-18 06:02:00,
2013-06-18 02:04:00,82.6,75.0,30.06,SE,141,7.4,8.0,77,0.00,,,0.00,TxWx,2013-06-18 06:04:00,
2013-06-18 02:06:00,82.7,75.0,30.06,South,186,6.8,6.8,77,0.00,,,0.00,TxWx,2013-06-18 06:06:00,
2013-06-18 02:07:00,82.8,75.0,30.06,SSE,163,6.2,6.2,77,0.00,,,0.00,TxWx,2013-06-18 06:07:00,
2013-06-18 02:09:00,82.7,75.0,30.06,SSE,163,10.5,10.5,77,0.00,,,0.00,TxWx,2013-06-18 06:09:00,
2013-06-18 02:11:00,82.6,75.0,30.06,SSE,163,5.0,5.6,77,0.00,,,0.00,TxWx,2013-06-18 06:11:00,
2013-06-18 02:12:00,82.8,75.0,30.06,SE,141,6.8,7.4,77,0.00,,,0.00,TxWx,2013-06-18 06:12:00,
2013-06-18 02:14:00,82.8,75.0,30.06,SE,141,5.0,6.8,77,0.00,,,0.00,TxWx,2013-06-18 06:14:00,
2013-06-18 02:16:00,82.6,75.0,30.06,SE,141,5.0,5.6,77,0.00,,,0.00,TxWx,2013-06-18 06:16:00,
2013-06-18 02:20:00,82.5,75.0,30.06,SSE,163,8.7,8.7,78,0.00,,,0.00,TxWx,2013-06-18 06:20:00,
2013-06-18 02:21:00,82.3,74.0,30.06,SE,141,6.2,6.2,77,0.00,,,0.00,TxWx,2013-06-18 06:21:00,
2013-06-18 02:22:00,82.4,74.0,30.05,SSE,163,5.6,5.6,77,0.00,,,0.00,TxWx,2013-06-18 06:22:00,
2013-06-18 02:23:00,82.5,74.0,30.05,SSE,163,6.2,6.2,77,0.00,,,0.00,TxWx,2013-06-18 06:23:00,
2013-06-18 02:24:00,82.6,75.0,30.06,SSE,163,5.0,5.6,77,0.00,,,0.00,TxWx,2013-06-18 06:24:00,
2013-06-18 02:26:00,82.6,75.0,30.06,South,186,5.6,5.6,77,0.00,,,0.00,TxWx,2013-06-18 06:26:00,
2013-06-18 02:27:00,82.5,74.0,30.05,SE,141,5.6,6.8,77,0.00,,,0.00,TxWx,2013-06-18 06:27:00,
2013-06-18 02:29:00,82.7,75.0,30.05,SSE,163,6.2,6.2,77,0.00,,,0.00,TxWx,2013-06-18 06:29:00,
2013-06-18 02:30:00,82.6,75.0,30.05,SE,141,5.6,5.6,77,0.00,,,0.00,TxWx,2013-06-18 06:30:00,
2013-06-18 02:31:00,82.7,75.0,30.06,SSE,163,6.2,6.8,77,0.00,,,0.00,TxWx,2013-06-18 06:31:00,
2013-06-18 02:33:00,82.6,75.0,30.06,SE,141,6.8,9.3,77,0.00,,,0.00,TxWx,2013-06-18 06:33:00,
2013-06-18 02:34:00,82.5,74.0,30.05,SE,141,6.8,6.8,77,0.00,,,0.00,TxWx,2013-06-18 06:34:00,
2013-06-18 02:35:00,82.4,74.0,30.06,SE,141,8.0,8.0,77,0.00,,,0.00,TxWx,2013-06-18 06:35:00,
2013-06-18 02:37:00,82.6,75.0,30.06,SSE,163,8.0,8.0,77,0.00,,,0.00,TxWx,2013-06-18 06:37:00,
2013-06-18 02:38:00,82.6,75.0,30.06,South,186,5.0,6.2,77,0.00,,,0.00,TxWx,2013-06-18 06:38:00,
2013-06-18 02:41:00,82.6,75.0,30.06,SE,141,6.8,8.0,78,0.00,,,0.00,TxWx,2013-06-18 06:41:00,
2013-06-18 02:42:00,82.7,75.0,30.06,SSE,163,6.2,6.2,78,0.00,,,0.00,TxWx,2013-06-18 06:42:00,
2013-06-18 02:43:00,82.7,75.0,30.06,SE,141,5.0,5.0,78,0.00,,,0.00,TxWx,2013-06-18 06:43:00,
2013-06-18 02:45:00,82.5,75.0,30.06,SE,141,6.2,6.2,78,0.00,,,0.00,TxWx,2013-06-18 06:45:00,
2013-06-18 02:46:00,82.7,75.0,30.06,South,186,4.3,5.0,78,0.00,,,0.00,TxWx,2013-06-18 06:46:00,
2013-06-18 02:48:00,82.3,74.0,30.06,SE,141,6.2,6.2,78,0.00,,,0.00,TxWx,2013-06-18 06:48:00,
2013-06-18 02:49:00,82.4,74.0,30.06,SSE,163,6.2,6.2,78,0.00,,,0.00,TxWx,2013-06-18 06:49:00,
2013-06-18 02:50:00,82.4,74.0,30.06,SSE,163,3.7,5.0,78,0.00,,,0.00,TxWx,2013-06-18 06:50:00,
2013-06-18 02:51:00,82.4,74.0,30.06,SE,141,5.6,5.6,78,0.00,,,0.00,TxWx,2013-06-18 06:51:00,
2013-06-18 02:55:00,82.5,75.0,30.06,SE,141,5.6,5.6,78,0.00,,,0.00,TxWx,2013-06-18 06:55:00,
2013-06-18 02:56:00,82.6,75.0,30.06,SE,141,5.0,5.0,78,0.00,,,0.00,TxWx,2013-06-18 06:56:00,
2013-06-18 02:57:00,82.4,74.0,30.06,SSE,163,5.0,5.0,77,0.00,,,0.00,TxWx,2013-06-18 06:57:00,
2013-06-18 02:59:00,82.5,75.0,30.06,ESE,118,6.2,6.8,77,0.00,,,0.00,TxWx,2013-06-18 06:59:00,
2013-06-18 03:01:00,82.7,75.0,30.06,SE,141,4.3,4.3,78,0.00,,,0.00,TxWx,2013-06-18 07:01:00,
2013-06-18 03:02:00,82.7,75.0,30.06,SSE,163,5.6,5.6,78,0.00,,,0.00,TxWx,2013-06-18 07:02:00,
2013-06-18 03:04:00,82.5,74.0,30.06,SE,141,5.6,6.8,78,0.00,,,0.00,TxWx,2013-06-18 07:04:00,
2013-06-18 03:07:00,82.6,75.0,30.06,SE,141,5.6,5.6,78,0.00,,,0.00,TxWx,2013-06-18 07:07:00,
2013-06-18 03:09:00,82.5,75.0,30.06,SE,141,5.0,5.0,78,0.00,,,0.00,TxWx,2013-06-18 07:09:00,
2013-06-18 03:10:00,82.4,74.0,30.06,SE,141,6.8,6.8,78,0.00,,,0.00,TxWx,2013-06-18 07:10:00,
2013-06-18 03:13:00,82.3,74.0,30.05,SE,141,6.8,6.8,77,0.00,,,0.00,TxWx,2013-06-18 07:13:00,
2013-06-18 03:15:00,82.6,75.0,30.05,SSE,163,5.0,5.6,78,0.00,,,0.00,TxWx,2013-06-18 07:15:00,
2013-06-18 03:16:00,82.5,75.0,30.05,South,186,6.8,7.4,78,0.00,,,0.00,TxWx,2013-06-18 07:16:00,
2013-06-18 03:17:00,82.6,75.0,30.05,ESE,118,5.6,5.6,78,0.00,,,0.00,TxWx,2013-06-18 07:17:00,
2013-06-18 03:19:00,82.5,75.0,30.05,SSE,163,4.3,5.0,78,0.00,,,0.00,TxWx,2013-06-18 07:19:00,
2013-06-18 03:20:00,82.5,75.0,30.05,ESE,118,5.6,5.6,78,0.00,,,0.00,TxWx,2013-06-18 07:20:00,
2013-06-18 03:22:00,82.3,74.0,30.05,SE,141,6.2,6.2,78,0.00,,,0.00,TxWx,2013-06-18 07:22:00,
2013-06-18 03:23:00,82.3,74.0,30.05,SSE,163,5.6,5.6,78,0.00,,,0.00,TxWx,2013-06-18 07:23:00,
2013-06-18 03:24:00,82.3,74.0,30.05,SE,141,5.0,6.2,78,0.00,,,0.00,TxWx,2013-06-18 07:24:00,
2013-06-18 03:28:00,82.5,75.0,30.05,SE,141,5.6,5.6,78,0.00,,,0.00,TxWx,2013-06-18 07:28:00,
2013-06-18 03:29:00,82.6,75.0,30.05,SE,141,6.2,6.2,78,0.00,,,0.00,TxWx,2013-06-18 07:29:00,
2013-06-18 03:30:00,82.4,74.0,30.05,SE,141,6.8,7.4,78,0.00,,,0.00,TxWx,2013-06-18 07:30:00,
2013-06-18 03:31:00,82.4,74.0,30.05,SE,141,6.8,6.8,78,0.00,,,0.00,TxWx,2013-06-18 07:31:00,
2013-06-18 03:34:00,82.3,74.0,30.05,SE,141,6.8,7.4,78,0.00,,,0.00,TxWx,2013-06-18 07:34:00,
2013-06-18 03:36:00,82.3,74.0,30.05,SSE,163,6.2,6.8,77,0.00,,,0.00,TxWx,2013-06-18 07:36:00,
2013-06-18 03:37:00,82.4,74.0,30.05,SE,141,6.2,6.8,77,0.00,,,0.00,TxWx,2013-06-18 07:37:00,
2013-06-18 03:39:00,82.4,74.0,30.05,SSE,163,5.0,5.0,77,0.00,,,0.00,TxWx,2013-06-18 07:39:00,
2013-06-18 03:41:00,82.2,74.0,30.05,SSE,163,5.6,6.2,77,0.00,,,0.00,TxWx,2013-06-18 07:41:00,
2013-06-18 03:42:00,82.4,74.0,30.05,SE,141,6.8,6.8,77,0.00,,,0.00,TxWx,2013-06-18 07:42:00,
2013-06-18 03:43:00,82.4,74.0,30.05,SSE,163,5.6,6.8,76,0.00,,,0.00,TxWx,2013-06-18 07:43:00,
2013-06-18 03:45:00,82.4,74.0,30.05,SSE,163,5.6,7.4,76,0.00,,,0.00,TxWx,2013-06-18 07:45:00,
2013-06-18 03:47:00,82.5,73.0,30.04,SE,141,6.2,6.2,76,0.00,,,0.00,TxWx,2013-06-18 07:47:00,
2013-06-18 03:48:00,82.4,73.0,30.05,SE,141,8.7,8.7,76,0.00,,,0.00,TxWx,2013-06-18 07:48:00,
2013-06-18 03:49:00,82.4,73.0,30.05,SSE,163,6.8,6.8,76,0.00,,,0.00,TxWx,2013-06-18 07:49:00,
2013-06-18 03:50:00,82.4,73.0,30.05,SSE,163,5.6,5.6,75,0.00,,,0.00,TxWx,2013-06-18 07:50:00,
2013-06-18 03:52:00,82.5,74.0,30.04,SE,141,5.0,5.6,76,0.00,,,0.00,TxWx,2013-06-18 07:52:00,
2013-06-18 03:53:00,82.5,74.0,30.04,SE,141,6.2,6.2,75,0.00,,,0.00,TxWx,2013-06-18 07:53:00,
2013-06-18 03:55:00,82.7,74.0,30.05,SSE,163,5.0,5.0,76,0.00,,,0.00,TxWx,2013-06-18 07:55:00,
2013-06-18 03:56:00,82.5,74.0,30.05,SSE,163,5.0,5.6,76,0.00,,,0.00,TxWx,2013-06-18 07:56:00,
2013-06-18 03:57:00,82.4,73.0,30.04,SE,141,6.8,6.8,75,0.00,,,0.00,TxWx,2013-06-18 07:57:00,
2013-06-18 03:59:00,82.4,73.0,30.05,SE,141,6.2,7.4,75,0.00,,,0.00,TxWx,2013-06-18 07:59:00,
2013-06-18 04:02:00,82.5,73.0,30.04,SSE,163,7.4,8.0,75,0.00,,,0.00,TxWx,2013-06-18 08:02:00,
2013-06-18 04:04:00,82.5,73.0,30.04,South,186,7.4,8.0,75,0.00,,,0.00,TxWx,2013-06-18 08:04:00,
2013-06-18 04:05:00,82.5,73.0,30.04,SSE,163,4.3,5.0,75,0.00,,,0.00,TxWx,2013-06-18 08:05:00,
2013-06-18 04:07:00,82.5,74.0,30.04,SE,141,7.4,8.7,75,0.00,,,0.00,TxWx,2013-06-18 08:07:00,
2013-06-18 04:08:00,82.4,73.0,30.04,SE,141,6.2,7.4,75,0.00,,,0.00,TxWx,2013-06-18 08:08:00,
2013-06-18 04:12:00,82.4,73.0,30.04,SSE,163,7.4,7.4,75,0.00,,,0.00,TxWx,2013-06-18 08:12:00,
2013-06-18 04:13:00,82.6,74.0,30.04,SSE,163,6.2,6.2,76,0.00,,,0.00,TxWx,2013-06-18 08:13:00,
2013-06-18 04:15:00,82.5,74.0,30.04,South,186,5.6,6.2,76,0.00,,,0.00,TxWx,2013-06-18 08:15:00,
2013-06-18 04:16:00,82.3,73.0,30.04,SSE,163,6.2,6.2,76,0.00,,,0.00,TxWx,2013-06-18 08:16:00,
2013-06-18 04:17:00,82.4,73.0,30.04,SE,141,8.7,8.7,76,0.00,,,0.00,TxWx,2013-06-18 08:17:00,
2013-06-18 04:19:00,82.3,73.0,30.04,South,186,3.7,3.7,76,0.00,,,0.00,TxWx,2013-06-18 08:19:00,
2013-06-18 04:20:00,82.1,73.0,30.04,South,186,3.7,3.7,76,0.00,,,0.00,TxWx,2013-06-18 08:20:00,
2013-06-18 04:22:00,82.1,73.0,30.04,SSE,163,6.2,6.2,75,0.00,,,0.00,TxWx,2013-06-18 08:22:00,
2013-06-18 04:23:00,82.3,73.0,30.04,SSE,163,5.0,5.0,76,0.00,,,0.00,TxWx,2013-06-18 08:23:00,
2013-06-18 04:24:00,82.3,73.0,30.04,SE,141,5.0,5.0,76,0.00,,,0.00,TxWx,2013-06-18 08:24:00,
2013-06-18 04:25:00,82.4,73.0,30.04,SE,141,5.6,5.6,76,0.00,,,0.00,TxWx,2013-06-18 08:25:00,
2013-06-18 04:27:00,82.4,73.0,30.04,SE,141,5.6,6.8,76,0.00,,,0.00,TxWx,2013-06-18 08:27:00,
2013-06-18 04:28:00,82.3,73.0,30.04,SSE,163,8.7,9.3,76,0.00,,,0.00,TxWx,2013-06-18 08:28:00,
2013-06-18 04:30:00,82.5,75.0,30.04,SE,141,5.0,6.2,76,0.00,,,0.00,TxWx,2013-06-18 08:30:00,
2013-06-18 04:31:00,82.6,75.0,30.04,SE,141,6.2,6.2,77,0.00,,,0.00,TxWx,2013-06-18 08:31:00,
2013-06-18 04:34:00,82.4,74.0,30.04,SE,141,5.0,5.0,76,0.00,,,0.00,TxWx,2013-06-18 08:34:00,
2013-06-18 04:35:00,82.4,74.0,30.04,SE,141,5.0,5.0,76,0.00,,,0.00,TxWx,2013-06-18 08:35:00,
2013-06-18 04:37:00,82.2,74.0,30.04,SSE,163,5.0,5.0,76,0.00,,,0.00,TxWx,2013-06-18 08:37:00,
2013-06-18 04:40:00,82.1,74.0,30.04,SE,141,6.8,7.4,76,0.00,,,0.00,TxWx,2013-06-18 08:40:00,
2013-06-18 04:41:00,82.1,74.0,30.04,SSE,163,6.8,6.8,76,0.00,,,0.00,TxWx,2013-06-18 08:41:00,
2013-06-18 04:43:00,82.1,74.0,30.04,South,186,8.0,8.0,76,0.00,,,0.00,TxWx,2013-06-18 08:43:00,
2013-06-18 04:46:00,82.3,74.0,30.04,ESE,118,5.0,5.6,76,0.00,,,0.00,TxWx,2013-06-18 08:46:00,
2013-06-18 04:48:00,82.3,74.0,30.04,SE,141,5.6,5.6,76,0.00,,,0.00,TxWx,2013-06-18 08:48:00,
2013-06-18 04:51:00,82.5,75.0,30.03,SE,141,5.6,6.2,77,0.00,,,0.00,TxWx,2013-06-18 08:51:00,
2013-06-18 04:52:00,82.4,74.0,30.04,SSE,163,5.0,5.0,77,0.00,,,0.00,TxWx,2013-06-18 08:52:00,
2013-06-18 04:55:00,82.4,74.0,30.04,SSW,208,2.5,2.5,77,0.00,,,0.00,TxWx,2013-06-18 08:55:00,
2013-06-18 04:56:00,82.3,74.0,30.04,SSE,163,5.6,5.6,77,0.00,,,0.00,TxWx,2013-06-18 08:56:00,
2013-06-18 04:57:00,82.1,74.0,30.04,SSE,163,5.6,6.8,77,0.00,,,0.00,TxWx,2013-06-18 08:57:00,
2013-06-18 05:01:00,82.1,74.0,30.04,SE,141,6.2,6.2,77,0.00,,,0.00,TxWx,2013-06-18 09:01:00,
2013-06-18 05:02:00,82.2,74.0,30.04,SSE,163,3.7,4.3,77,0.00,,,0.00,TxWx,2013-06-18 09:02:00,
2013-06-18 05:03:00,82.2,74.0,30.04,SSE,163,3.7,3.7,77,0.00,,,0.00,TxWx,2013-06-18 09:03:00,
2013-06-18 05:05:00,82.2,74.0,30.04,ESE,118,5.6,5.6,77,0.00,,,0.00,TxWx,2013-06-18 09:05:00,
2013-06-18 05:06:00,82.2,74.0,30.04,SE,141,3.1,3.7,77,0.00,,,0.00,TxWx,2013-06-18 09:06:00,
2013-06-18 05:08:00,82.1,74.0,30.04,SSE,163,6.2,6.2,77,0.00,,,0.00,TxWx,2013-06-18 09:08:00,
2013-06-18 05:09:00,82.0,74.0,30.04,SE,141,4.3,5.0,77,0.00,,,0.00,TxWx,2013-06-18 09:09:00,
2013-06-18 05:12:00,82.0,74.0,30.03,ESE,118,4.3,5.0,77,0.00,,,0.00,TxWx,2013-06-18 09:12:00,
2013-06-18 05:13:00,82.0,74.0,30.04,SSE,163,5.0,5.0,77,0.00,,,0.00,TxWx,2013-06-18 09:13:00,
2013-06-18 05:15:00,82.0,74.0,30.04,SSE,163,6.2,6.2,77,0.00,,,0.00,TxWx,2013-06-18 09:15:00,
2013-06-18 05:17:00,82.0,74.0,30.04,SE,141,5.6,6.2,77,0.00,,,0.00,TxWx,2013-06-18 09:17:00,
2013-06-18 05:19:00,82.2,74.0,30.04,SSW,208,4.3,5.0,77,0.00,,,0.00,TxWx,2013-06-18 09:19:00,
2013-06-18 05:21:00,82.2,74.0,30.03,SE,141,3.7,3.7,77,0.00,,,0.00,TxWx,2013-06-18 09:21:00,
2013-06-18 05:23:00,82.2,74.0,30.03,SSE,163,5.6,5.6,77,0.00,,,0.00,TxWx,2013-06-18 09:23:00,
2013-06-18 05:27:00,81.9,74.0,30.03,SSE,163,3.7,3.7,77,0.00,,,0.00,TxWx,2013-06-18 09:27:00,
2013-06-18 05:28:00,82.0,74.0,30.03,SE,141,5.6,6.2,77,0.00,,,0.00,TxWx,2013-06-18 09:28:00,
2013-06-18 05:29:00,82.0,74.0,30.03,SSE,163,5.0,5.6,78,0.00,,,0.00,TxWx,2013-06-18 09:29:00,
2013-06-18 05:30:00,82.1,74.0,30.03,SE,141,4.3,4.3,78,0.00,,,0.00,TxWx,2013-06-18 09:30:00,
2013-06-18 05:33:00,82.0,74.0,30.04,SE,141,3.7,4.3,78,0.00,,,0.00,TxWx,2013-06-18 09:33:00,
2013-06-18 05:35:00,81.9,74.0,30.04,SSE,163,6.2,6.2,78,0.00,,,0.00,TxWx,2013-06-18 09:35:00,
2013-06-18 05:36:00,82.0,74.0,30.03,ESE,118,5.0,5.0,78,0.00,,,0.00,TxWx,2013-06-18 09:36:00,
2013-06-18 05:40:00,81.8,74.0,30.04,SE,141,4.3,4.3,78,0.00,,,0.00,TxWx,2013-06-18 09:40:00,
2013-06-18 05:41:00,81.8,74.0,30.04,SSE,163,5.6,5.6,78,0.00,,,0.00,TxWx,2013-06-18 09:41:00,
2013-06-18 05:42:00,81.8,74.0,30.04,SE,141,3.7,4.3,78,0.00,,,0.00,TxWx,2013-06-18 09:42:00,
2013-06-18 05:44:00,81.9,74.0,30.04,SE,141,6.2,6.2,78,0.00,,,0.00,TxWx,2013-06-18 09:44:00,
2013-06-18 05:46:00,82.0,74.0,30.03,SSE,163,4.3,4.3,78,0.00,,,0.00,TxWx,2013-06-18 09:46:00,
2013-06-18 05:47:00,82.0,75.0,30.03,South,186,6.2,6.2,79,0.00,,,0.00,TxWx,2013-06-18 09:47:00,
2013-06-18 05:50:00,81.8,75.0,30.03,SSE,163,4.3,5.6,79,0.00,,,0.00,TxWx,2013-06-18 09:50:00,
2013-06-18 05:51:00,81.9,75.0,30.04,SSE,163,6.8,6.8,79,0.00,,,0.00,TxWx,2013-06-18 09:51:00,
2013-06-18 05:52:00,81.8,75.0,30.03,SE,141,6.8,7.4,79,0.00,,,0.00,TxWx,2013-06-18 09:52:00,
2013-06-18 05:53:00,81.8,74.0,30.04,South,186,6.8,6.8,78,0.00,,,0.00,TxWx,2013-06-18 09:53:00,
2013-06-18 05:56:00,82.0,75.0,30.04,SE,141,5.0,5.0,79,0.00,,,0.00,TxWx,2013-06-18 09:56:00,
2013-06-18 05:57:00,82.2,75.0,30.04,SSE,163,6.8,6.8,79,0.00,,,0.00,TxWx,2013-06-18 09:57:00,
2013-06-18 05:59:00,81.9,75.0,30.03,SSE,163,5.6,5.6,79,0.00,,,0.00,TxWx,2013-06-18 09:59:00,
2013-06-18 06:01:00,82.0,75.0,30.04,SE,141,5.0,5.6,79,0.00,,,0.00,TxWx,2013-06-18 10:01:00,
2013-06-18 06:02:00,81.9,75.0,30.04,South,186,5.6,5.6,79,0.00,,,0.00,TxWx,2013-06-18 10:02:00,
2013-06-18 06:03:00,81.9,75.0,30.04,SSE,163,5.0,5.0,79,0.00,,,0.00,TxWx,2013-06-18 10:03:00,
2013-06-18 06:04:00,81.9,75.0,30.04,South,186,6.2,6.2,79,0.00,,,0.00,TxWx,2013-06-18 10:04:00,
2013-06-18 06:06:00,81.8,75.0,30.04,SE,141,6.8,6.8,79,0.00,,,0.00,TxWx,2013-06-18 10:06:00,
2013-06-18 06:07:00,81.8,75.0,30.04,SE,141,5.6,6.2,79,0.00,,,0.00,TxWx,2013-06-18 10:07:00,
2013-06-18 06:10:00,81.8,75.0,30.04,SE,141,7.4,8.0,79,0.00,,,0.00,TxWx,2013-06-18 10:10:00,
2013-06-18 06:11:00,81.9,75.0,30.03,SE,141,6.8,6.8,79,0.00,,,0.00,TxWx,2013-06-18 10:11:00,
2013-06-18 06:13:00,82.0,75.0,30.03,SE,141,6.2,6.2,79,0.00,,,0.00,TxWx,2013-06-18 10:13:00,
2013-06-18 06:16:00,82.0,75.0,30.03,SE,141,7.4,8.0,79,0.00,,,0.00,TxWx,2013-06-18 10:16:00,
2013-06-18 06:17:00,82.0,75.0,30.03,SE,141,6.8,8.0,79,0.00,,,0.00,TxWx,2013-06-18 10:17:00,
2013-06-18 06:18:00,82.2,75.0,30.03,ESE,118,5.6,6.8,79,0.00,,,0.00,TxWx,2013-06-18 10:18:00,
2013-06-18 06:21:00,81.8,75.0,30.03,SE,141,7.4,8.7,79,0.00,,,0.00,TxWx,2013-06-18 10:21:00,
2013-06-18 06:22:00,81.9,75.0,30.03,SE,141,6.2,7.4,79,0.00,,,0.00,TxWx,2013-06-18 10:22:00,
2013-06-18 06:23:00,81.8,75.0,30.03,SE,141,7.4,7.4,79,0.00,,,0.00,TxWx,2013-06-18 10:23:00,
2013-06-18 06:26:00,82.1,75.0,30.03,SE,141,9.3,9.3,79,0.00,,,0.00,TxWx,2013-06-18 10:26:00,
2013-06-18 06:28:00,82.0,75.0,30.03,SE,141,8.7,9.9,79,0.00,,,0.00,TxWx,2013-06-18 10:28:00,
2013-06-18 06:29:00,82.1,75.0,30.04,SSE,163,7.4,8.7,79,0.00,,,0.00,TxWx,2013-06-18 10:29:00,
2013-06-18 06:33:00,81.9,75.0,30.03,South,186,6.2,6.8,79,0.00,,,0.00,TxWx,2013-06-18 10:33:00,
2013-06-18 06:34:00,82.0,75.0,30.03,SSE,163,6.8,6.8,79,0.00,,,0.00,TxWx,2013-06-18 10:34:00,
2013-06-18 06:36:00,81.7,75.0,30.03,SSE,163,8.0,9.9,79,0.00,,,0.00,TxWx,2013-06-18 10:36:00,
2013-06-18 06:37:00,81.8,75.0,30.03,SE,141,6.8,8.0,79,0.00,,,0.00,TxWx,2013-06-18 10:37:00,
2013-06-18 06:40:00,82.0,75.0,30.03,SE,141,6.8,8.0,79,0.00,,,0.00,TxWx,2013-06-18 10:40:00,
2013-06-18 06:41:00,81.8,75.0,30.03,SSE,163,8.0,9.9,79,0.00,,,0.00,TxWx,2013-06-18 10:41:00,
2013-06-18 06:43:00,82.0,75.0,30.03,SSE,163,6.2,6.8,79,0.00,,,0.00,TxWx,2013-06-18 10:43:00,
2013-06-18 06:46:00,81.9,75.0,30.03,SE,141,9.9,9.9,79,0.00,,,0.00,TxWx,2013-06-18 10:46:00,
2013-06-18 06:47:00,82.0,75.0,30.03,SSE,163,8.0,8.0,79,0.00,,,0.00,TxWx,2013-06-18 10:47:00,
2013-06-18 06:49:00,81.9,75.0,30.04,ESE,118,6.8,8.0,79,0.00,,,0.00,TxWx,2013-06-18 10:49:00,
2013-06-18 06:50:00,81.8,74.0,30.04,SE,141,6.8,7.4,78,0.00,,,0.00,TxWx,2013-06-18 10:50:00,
2013-06-18 06:51:00,81.8,74.0,30.04,SSE,163,8.0,9.3,78,0.00,,,0.00,TxWx,2013-06-18 10:51:00,
2013-06-18 06:52:00,81.8,74.0,30.04,SSE,163,8.7,8.7,78,0.00,,,0.00,TxWx,2013-06-18 10:52:00,
2013-06-18 06:53:00,81.9,74.0,30.04,South,186,8.7,8.7,78,0.00,,,0.00,TxWx,2013-06-18 10:53:00,
2013-06-18 06:56:00,82.2,75.0,30.04,ESE,118,6.2,8.0,79,0.00,,,0.00,TxWx,2013-06-18 10:56:00,
2013-06-18 06:57:00,82.0,74.0,30.04,SSE,163,8.0,8.0,78,0.00,,,0.00,TxWx,2013-06-18 10:57:00,
2013-06-18 06:59:00,82.0,75.0,30.04,ESE,118,6.8,7.4,79,0.00,,,0.00,TxWx,2013-06-18 10:59:00,
2013-06-18 07:01:00,81.9,74.0,30.04,SSE,163,9.3,9.9,78,0.00,,,0.00,TxWx,2013-06-18 11:01:00,
2013-06-18 07:02:00,81.8,74.0,30.04,SSE,163,9.3,9.9,78,0.00,,,0.00,TxWx,2013-06-18 11:02:00,
2013-06-18 07:03:00,81.8,74.0,30.04,SE,141,8.0,9.3,78,0.00,,,0.00,TxWx,2013-06-18 11:03:00,
2013-06-18 07:05:00,82.2,75.0,30.04,SSE,163,8.0,8.0,79,0.00,,,0.00,TxWx,2013-06-18 11:05:00,
2013-06-18 07:06:00,82.1,75.0,30.04,SE,141,8.0,8.0,79,0.00,,,0.00,TxWx,2013-06-18 11:06:00,
2013-06-18 07:07:00,82.1,74.0,30.04,South,186,7.4,7.4,78,0.00,,,0.00,TxWx,2013-06-18 11:07:00,
2013-06-18 07:09:00,82.0,75.0,30.04,SE,141,8.0,8.0,79,0.00,,,0.00,TxWx,2013-06-18 11:09:00,
2013-06-18 07:11:00,81.9,74.0,30.04,ESE,118,6.2,6.8,78,0.00,,,0.00,TxWx,2013-06-18 11:11:00,
2013-06-18 07:12:00,81.9,74.0,30.04,SSE,163,8.0,8.0,78,0.00,,,0.00,TxWx,2013-06-18 11:12:00,
2013-06-18 07:13:00,82.1,75.0,30.04,SSE,163,6.2,6.2,79,0.00,,,0.00,TxWx,2013-06-18 11:13:00,
2013-06-18 07:15:00,81.9,74.0,30.04,SSE,163,8.0,8.0,78,0.00,,,0.00,TxWx,2013-06-18 11:15:00,
2013-06-18 07:16:00,82.0,74.0,30.04,SE,141,5.6,5.6,78,0.00,,,0.00,TxWx,2013-06-18 11:16:00,
2013-06-18 07:17:00,82.1,75.0,30.05,SSE,163,6.2,7.4,79,0.00,,,0.00,TxWx,2013-06-18 11:17:00,
2013-06-18 07:18:00,81.9,74.0,30.04,SSE,163,6.2,6.2,78,0.00,,,0.00,TxWx,2013-06-18 11:18:00,
2013-06-18 07:19:00,81.8,74.0,30.05,SE,141,8.7,9.3,78,0.00,,,0.00,TxWx,2013-06-18 11:19:00,
2013-06-18 07:22:00,82.0,75.0,30.05,SE,141,6.2,6.2,79,0.00,,,0.00,TxWx,2013-06-18 11:22:00,
2013-06-18 07:23:00,82.0,75.0,30.05,SE,141,6.2,6.8,79,0.00,,,0.00,TxWx,2013-06-18 11:23:00,
2013-06-18 07:24:00,82.1,75.0,30.05,SE,141,7.4,7.4,79,0.00,,,0.00,TxWx,2013-06-18 11:24:00,
2013-06-18 07:25:00,81.9,75.0,30.05,ESE,118,6.8,8.0,79,0.00,,,0.00,TxWx,2013-06-18 11:25:00,
2013-06-18 07:29:00,81.7,75.0,30.05,SE,141,8.0,9.3,79,0.00,,,0.00,TxWx,2013-06-18 11:29:00,
2013-06-18 07:30:00,81.8,75.0,30.05,SE,141,5.6,6.2,79,0.00,,,0.00,TxWx,2013-06-18 11:30:00,
2013-06-18 07:31:00,81.8,75.0,30.05,SE,141,9.9,9.9,79,0.00,,,0.00,TxWx,2013-06-18 11:31:00,
2013-06-18 07:33:00,81.8,75.0,30.05,SE,141,7.4,8.0,79,0.00,,,0.00,TxWx,2013-06-18 11:33:00,
2013-06-18 07:35:00,82.0,75.0,30.05,SSE,163,5.6,6.2,79,0.00,,,0.00,TxWx,2013-06-18 11:35:00,
2013-06-18 07:36:00,81.8,75.0,30.05,SE,141,6.8,8.7,79,0.00,,,0.00,TxWx,2013-06-18 11:36:00,
2013-06-18 07:37:00,81.8,75.0,30.05,SSE,163,8.7,9.3,79,0.00,,,0.00,TxWx,2013-06-18 11:37:00,
2013-06-18 07:39:00,81.9,75.0,30.06,SSE,163,7.4,7.4,79,0.00,,,0.00,TxWx,2013-06-18 11:39:00,
2013-06-18 07:41:00,81.8,75.0,30.06,SE,141,5.6,6.2,79,0.00,,,0.00,TxWx,2013-06-18 11:41:00,
2013-06-18 07:42:00,81.9,75.0,30.06,SSE,163,6.2,6.2,79,0.00,,,0.00,TxWx,2013-06-18 11:42:00,
2013-06-18 07:44:00,81.7,75.0,30.06,SE,141,6.8,6.8,79,0.00,,,0.00,TxWx,2013-06-18 11:44:00,
2013-06-18 07:45:00,81.8,75.0,30.06,SE,141,6.2,6.2,79,0.00,,,0.00,TxWx,2013-06-18 11:45:00,
2013-06-18 07:46:00,82.1,75.0,30.06,SSE,163,6.2,6.2,79,0.00,,,0.00,TxWx,2013-06-18 11:46:00,
2013-06-18 07:48:00,81.8,75.0,30.06,SE,141,5.6,5.6,79,0.00,,,0.00,TxWx,2013-06-18 11:48:00,
2013-06-18 07:49:00,81.9,75.0,30.06,SE,141,5.6,5.6,79,0.00,,,0.00,TxWx,2013-06-18 11:49:00,
2013-06-18 07:50:00,82.2,75.0,30.06,SE,141,4.3,5.6,79,0.00,,,0.00,TxWx,2013-06-18 11:50:00,
2013-06-18 07:53:00,82.0,74.0,30.06,SSE,163,5.0,5.6,78,0.00,,,0.00,TxWx,2013-06-18 11:53:00,
2013-06-18 07:55:00,82.3,74.0,30.06,SSE,163,5.0,5.0,78,0.00,,,0.00,TxWx,2013-06-18 11:55:00,
2013-06-18 07:58:00,82.3,74.0,30.06,SE,141,4.3,5.6,77,0.00,,,0.00,TxWx,2013-06-18 11:58:00,
2013-06-18 08:00:00,82.4,74.0,30.07,SE,141,5.6,6.2,77,0.00,,,0.00,TxWx,2013-06-18 12:00:00,
2013-06-18 08:02:00,82.7,75.0,30.07,SSE,163,5.6,5.6,77,0.00,,,0.00,TxWx,2013-06-18 12:02:00,
2013-06-18 08:03:00,82.7,75.0,30.07,SE,141,3.1,4.3,76,0.00,,,0.00,TxWx,2013-06-18 12:03:00,
2013-06-18 08:05:00,82.7,75.0,30.07,SSE,163,5.0,5.6,76,0.00,,,0.00,TxWx,2013-06-18 12:05:00,
2013-06-18 08:06:00,82.8,75.0,30.07,SE,141,3.1,3.1,76,0.00,,,0.00,TxWx,2013-06-18 12:06:00,
2013-06-18 08:08:00,82.8,75.0,30.07,SE,141,4.3,4.3,76,0.00,,,0.00,TxWx,2013-06-18 12:08:00,
2013-06-18 08:09:00,82.7,74.0,30.07,SSE,163,5.6,5.6,76,0.00,,,0.00,TxWx,2013-06-18 12:09:00,
2013-06-18 08:10:00,82.9,75.0,30.07,ESE,118,3.1,3.1,76,0.00,,,0.00,TxWx,2013-06-18 12:10:00,
2013-06-18 08:11:00,82.9,75.0,30.07,SE,141,3.7,3.7,76,0.00,,,0.00,TxWx,2013-06-18 12:11:00,
2013-06-18 08:12:00,82.9,75.0,30.07,SE,141,4.3,5.0,76,0.00,,,0.00,TxWx,2013-06-18 12:12:00,
2013-06-18 08:13:00,83.1,75.0,30.07,SE,141,3.1,3.7,76,0.00,,,0.00,TxWx,2013-06-18 12:13:00,
2013-06-18 08:16:00,83.1,74.0,30.07,SSE,163,4.3,5.0,76,0.00,,,0.00,TxWx,2013-06-18 12:16:00,
2013-06-18 08:17:00,83.0,74.0,30.07,SE,141,6.2,6.2,76,0.00,,,0.00,TxWx,2013-06-18 12:17:00,
2013-06-18 08:18:00,83.0,74.0,30.07,SE,141,7.4,7.4,75,0.00,,,0.00,TxWx,2013-06-18 12:18:00,
2013-06-18 08:21:00,83.1,74.0,30.08,SE,141,5.6,6.2,76,0.00,,,0.00,TxWx,2013-06-18 12:21:00,
2013-06-18 08:22:00,83.2,74.0,30.07,ESE,118,4.3,4.3,76,0.00,,,0.00,TxWx,2013-06-18 12:22:00,
2013-06-18 08:23:00,83.1,74.0,30.08,SSE,163,6.2,6.8,76,0.00,,,0.00,TxWx,2013-06-18 12:23:00,
2013-06-18 08:25:00,82.8,74.0,30.08,SE,141,6.8,6.8,75,0.00,,,0.00,TxWx,2013-06-18 12:25:00,
2013-06-18 08:27:00,82.8,74.0,30.08,SE,141,6.2,6.2,74,0.00,,,0.00,TxWx,2013-06-18 12:27:00,
2013-06-18 08:28:00,82.8,74.0,30.08,SSE,163,5.0,6.2,74,0.00,,,0.00,TxWx,2013-06-18 12:28:00,
2013-06-18 08:30:00,82.7,74.0,30.08,SSE,163,5.6,5.6,74,0.00,,,0.00,TxWx,2013-06-18 12:30:00,
2013-06-18 08:33:00,82.7,74.0,30.08,SE,141,5.6,6.2,74,0.00,,,0.00,TxWx,2013-06-18 12:33:00,
2013-06-18 08:35:00,82.8,74.0,30.08,SSE,163,5.6,5.6,75,0.00,,,0.00,TxWx,2013-06-18 12:35:00,
2013-06-18 08:36:00,82.7,74.0,30.08,SE,141,3.7,4.3,75,0.00,,,0.00,TxWx,2013-06-18 12:36:00,
2013-06-18 08:37:00,82.7,74.0,30.08,South,186,5.0,5.0,75,0.00,,,0.00,TxWx,2013-06-18 12:37:00,
2013-06-18 08:39:00,82.3,73.0,30.08,SE,141,3.7,3.7,75,0.00,,,0.00,TxWx,2013-06-18 12:39:00,
2013-06-18 08:40:00,82.5,73.0,30.08,ESE,118,3.1,3.1,75,0.00,,,0.00,TxWx,2013-06-18 12:40:00,
2013-06-18 08:41:00,82.4,73.0,30.08,SSE,163,3.7,3.7,75,0.00,,,0.00,TxWx,2013-06-18 12:41:00,
2013-06-18 08:44:00,82.8,74.0,30.08,SSE,163,7.4,7.4,76,0.00,,,0.00,TxWx,2013-06-18 12:44:00,
2013-06-18 08:45:00,82.7,74.0,30.08,SE,141,4.3,5.6,75,0.00,,,0.00,TxWx,2013-06-18 12:45:00,
2013-06-18 08:46:00,82.8,74.0,30.08,SE,141,5.6,6.2,75,0.00,,,0.00,TxWx,2013-06-18 12:46:00,
2013-06-18 08:49:00,82.6,74.0,30.09,SSE,163,6.8,6.8,75,0.00,,,0.00,TxWx,2013-06-18 12:49:00,
2013-06-18 08:50:00,82.7,74.0,30.09,SSE,163,6.2,6.2,74,0.00,,,0.00,TxWx,2013-06-18 12:50:00,
2013-06-18 08:51:00,82.7,74.0,30.09,SE,141,5.6,5.6,74,0.00,,,0.00,TxWx,2013-06-18 12:51:00,
2013-06-18 08:52:00,82.7,74.0,30.09,SSE,163,6.2,6.2,74,0.00,,,0.00,TxWx,2013-06-18 12:52:00,
2013-06-18 08:55:00,82.9,74.0,30.08,SE,141,6.2,6.2,74,0.00,,,0.00,TxWx,2013-06-18 12:55:00,
2013-06-18 08:57:00,83.3,74.0,30.08,SSE,163,5.6,5.6,74,0.00,,,0.00,TxWx,2013-06-18 12:57:00,
2013-06-18 09:01:00,83.1,74.0,30.08,SSE,163,6.8,6.8,74,0.00,,,0.00,TxWx,2013-06-18 13:01:00,
2013-06-18 09:02:00,83.3,74.0,30.08,SSE,163,6.8,6.8,74,0.00,,,0.00,TxWx,2013-06-18 13:02:00,
2013-06-18 09:03:00,83.3,74.0,30.08,SE,141,6.2,6.2,74,0.00,,,0.00,TxWx,2013-06-18 13:03:00,
2013-06-18 09:06:00,83.2,74.0,30.08,SE,141,4.3,4.3,74,0.00,,,0.00,TxWx,2013-06-18 13:06:00,
2013-06-18 09:08:00,83.3,74.0,30.08,SSE,163,6.2,6.2,74,0.00,,,0.00,TxWx,2013-06-18 13:08:00,
2013-06-18 09:09:00,83.3,74.0,30.08,SSE,163,5.6,5.6,74,0.00,,,0.00,TxWx,2013-06-18 13:09:00,
2013-06-18 09:13:00,83.4,74.0,30.08,SE,141,4.3,4.3,74,0.00,,,0.00,TxWx,2013-06-18 13:13:00,
2013-06-18 09:14:00,83.4,74.0,30.08,SSE,163,6.2,6.2,74,0.00,,,0.00,TxWx,2013-06-18 13:14:00,
2013-06-18 09:16:00,83.7,75.0,30.08,SSE,163,5.0,5.6,74,0.00,,,0.00,TxWx,2013-06-18 13:16:00,
2013-06-18 09:19:00,83.5,75.0,30.08,ESE,118,5.0,5.6,74,0.00,,,0.00,TxWx,2013-06-18 13:19:00,
2013-06-18 09:20:00,83.4,74.0,30.08,SE,141,5.6,5.6,74,0.00,,,0.00,TxWx,2013-06-18 13:20:00,
2013-06-18 09:22:00,83.3,74.0,30.08,SSE,163,6.8,6.8,74,0.00,,,0.00,TxWx,2013-06-18 13:22:00,
2013-06-18 09:24:00,83.3,74.0,30.08,SSE,163,7.4,7.4,74,0.00,,,0.00,TxWx,2013-06-18 13:24:00,
2013-06-18 09:25:00,83.2,74.0,30.08,SE,141,7.4,7.4,74,0.00,,,0.00,TxWx,2013-06-18 13:25:00,
2013-06-18 09:26:00,83.4,74.0,30.09,SE,141,5.6,6.2,74,0.00,,,0.00,TxWx,2013-06-18 13:26:00,
2013-06-18 09:27:00,83.4,74.0,30.08,SSE,163,5.6,6.8,74,0.00,,,0.00,TxWx,2013-06-18 13:27:00,
2013-06-18 09:29:00,83.3,74.0,30.09,SSE,163,6.8,6.8,74,0.00,,,0.00,TxWx,2013-06-18 13:29:00,
2013-06-18 09:30:00,83.6,75.0,30.09,SSE,163,3.1,3.7,74,0.00,,,0.00,TxWx,2013-06-18 13:30:00,
2013-06-18 09:32:00,83.3,74.0,30.09,SSE,163,5.0,5.6,74,0.00,,,0.00,TxWx,2013-06-18 13:32:00,
2013-06-18 09:34:00,83.5,74.0,30.09,SSE,163,5.0,5.6,74,0.00,,,0.00,TxWx,2013-06-18 13:34:00,
2013-06-18 09:36:00,83.3,74.0,30.09,SSE,163,5.0,6.2,74,0.00,,,0.00,TxWx,2013-06-18 13:36:00,
2013-06-18 09:37:00,83.3,74.0,30.09,SE,141,5.6,6.8,74,0.00,,,0.00,TxWx,2013-06-18 13:37:00,
2013-06-18 09:38:00,83.3,74.0,30.09,SSE,163,6.2,6.2,74,0.00,,,0.00,TxWx,2013-06-18 13:38:00,
2013-06-18 09:39:00,83.2,73.0,30.09,SSE,163,6.8,6.8,73,0.00,,,0.00,TxWx,2013-06-18 13:39:00,
2013-06-18 09:41:00,83.6,75.0,30.09,SE,141,4.3,5.0,74,0.00,,,0.00,TxWx,2013-06-18 13:41:00,
2013-06-18 09:42:00,83.8,75.0,30.08,SE,141,4.3,4.3,74,0.00,,,0.00,TxWx,2013-06-18 13:42:00,
2013-06-18 09:43:00,84.0,75.0,30.09,SE,141,3.7,4.3,74,0.00,,,0.00,TxWx,2013-06-18 13:43:00,
2013-06-18 09:44:00,83.7,75.0,30.09,SE,141,4.3,4.3,74,0.00,,,0.00,TxWx,2013-06-18 13:44:00,
2013-06-18 09:46:00,83.8,75.0,30.09,SE,141,4.3,5.0,74,0.00,,,0.00,TxWx,2013-06-18 13:46:00,
2013-06-18 09:48:00,83.8,75.0,30.09,SSE,163,5.6,5.6,74,0.00,,,0.00,TxWx,2013-06-18 13:48:00,
2013-06-18 09:50:00,84.2,75.0,30.09,SE,141,5.6,5.6,74,0.00,,,0.00,TxWx,2013-06-18 13:50:00,
2013-06-18 09:51:00,83.7,75.0,30.09,SE,141,5.6,5.6,74,0.00,,,0.00,TxWx,2013-06-18 13:51:00,
2013-06-18 09:53:00,83.7,75.0,30.09,SE,141,4.3,4.3,74,0.00,,,0.00,TxWx,2013-06-18 13:53:00,
2013-06-18 09:55:00,83.8,75.0,30.09,SSE,163,5.0,5.0,74,0.00,,,0.00,TxWx,2013-06-18 13:55:00,
2013-06-18 09:56:00,84.0,75.0,30.09,SE,141,4.3,4.3,74,0.00,,,0.00,TxWx,2013-06-18 13:56:00,
2013-06-18 09:57:00,83.9,75.0,30.09,SSE,163,6.2,6.2,74,0.00,,,0.00,TxWx,2013-06-18 13:57:00,
2013-06-18 09:58:00,84.0,75.0,30.09,SE,141,5.0,5.0,75,0.00,,,0.00,TxWx,2013-06-18 13:58:00,
2013-06-18 10:00:00,84.0,75.0,30.09,SSE,163,5.0,5.0,75,0.00,,,0.00,TxWx,2013-06-18 14:00:00,
2013-06-18 10:01:00,84.0,75.0,30.08,SSE,163,5.0,5.0,75,0.00,,,0.00,TxWx,2013-06-18 14:01:00,
2013-06-18 10:02:00,84.0,75.0,30.08,SE,141,5.6,6.2,75,0.00,,,0.00,TxWx,2013-06-18 14:02:00,
2013-06-18 10:05:00,83.6,75.0,30.08,South,186,6.8,6.8,74,0.00,,,0.00,TxWx,2013-06-18 14:05:00,
2013-06-18 10:06:00,83.5,74.0,30.08,ESE,118,6.8,8.0,73,0.00,,,0.00,TxWx,2013-06-18 14:06:00,
2013-06-18 10:07:00,83.4,73.0,30.08,SSE,163,8.7,8.7,73,0.00,,,0.00,TxWx,2013-06-18 14:07:00,
2013-06-18 10:08:00,83.7,75.0,30.09,SSE,163,6.2,6.2,74,0.00,,,0.00,TxWx,2013-06-18 14:08:00,
2013-06-18 10:09:00,83.5,75.0,30.08,SE,141,5.6,5.6,74,0.00,,,0.00,TxWx,2013-06-18 14:09:00,
2013-06-18 10:11:00,83.5,75.0,30.08,SE,141,5.6,6.2,74,0.00,,,0.00,TxWx,2013-06-18 14:11:00,
2013-06-18 10:12:00,83.8,75.0,30.08,ESE,118,4.3,4.3,74,0.00,,,0.00,TxWx,2013-06-18 14:12:00,
2013-06-18 10:14:00,83.6,75.0,30.08,SSE,163,6.8,7.4,74,0.00,,,0.00,TxWx,2013-06-18 14:14:00,
2013-06-18 10:16:00,83.5,75.0,30.08,SE,141,5.6,5.6,74,0.00,,,0.00,TxWx,2013-06-18 14:16:00,
2013-06-18 10:17:00,83.9,75.0,30.08,SE,141,5.6,5.6,74,0.00,,,0.00,TxWx,2013-06-18 14:17:00,
2013-06-18 10:18:00,84.0,75.0,30.08,SSE,163,5.6,5.6,74,0.00,,,0.00,TxWx,2013-06-18 14:18:00,
2013-06-18 10:19:00,84.1,75.0,30.08,SE,141,5.0,5.0,74,0.00,,,0.00,TxWx,2013-06-18 14:19:00,
2013-06-18 10:22:00,83.5,74.0,30.09,SSE,163,7.4,8.0,73,0.00,,,0.00,TxWx,2013-06-18 14:22:00,
2013-06-18 10:23:00,83.6,74.0,30.09,SE,141,6.8,7.4,73,0.00,,,0.00,TxWx,2013-06-18 14:23:00,
2013-06-18 10:24:00,83.7,74.0,30.09,SSE,163,5.0,5.0,73,0.00,,,0.00,TxWx,2013-06-18 14:24:00,
2013-06-18 10:25:00,83.8,75.0,30.09,SSE,163,6.2,7.4,74,0.00,,,0.00,TxWx,2013-06-18 14:25:00,
2013-06-18 10:28:00,84.4,75.0,30.09,SE,141,4.3,4.3,74,0.00,,,0.00,TxWx,2013-06-18 14:28:00,
2013-06-18 10:29:00,84.0,75.0,30.09,SE,141,5.6,5.6,74,0.00,,,0.00,TxWx,2013-06-18 14:29:00,
2013-06-18 10:32:00,84.3,75.0,30.09,SE,141,5.0,5.6,74,0.00,,,0.00,TxWx,2013-06-18 14:32:00,
2013-06-18 10:34:00,84.4,75.0,30.09,SE,141,4.3,5.0,74,0.00,,,0.00,TxWx,2013-06-18 14:34:00,
2013-06-18 10:36:00,84.3,74.0,30.09,ESE,118,3.7,5.0,73,0.00,,,0.00,TxWx,2013-06-18 14:36:00,
2013-06-18 10:37:00,84.8,76.0,30.09,SE,141,4.3,4.3,74,0.00,,,0.00,TxWx,2013-06-18 14:37:00,
2013-06-18 10:38:00,84.8,76.0,30.09,SE,141,4.3,5.6,74,0.00,,,0.00,TxWx,2013-06-18 14:38:00,
2013-06-18 10:41:00,84.2,74.0,30.09,SE,141,5.6,5.6,73,0.00,,,0.00,TxWx,2013-06-18 14:41:00,
2013-06-18 10:43:00,84.3,74.0,30.09,SE,141,6.8,6.8,73,0.00,,,0.00,TxWx,2013-06-18 14:43:00,
2013-06-18 10:44:00,84.1,74.0,30.09,SE,141,6.2,6.2,73,0.00,,,0.00,TxWx,2013-06-18 14:44:00,
2013-06-18 10:45:00,84.2,75.0,30.08,SSE,163,5.0,6.2,74,0.00,,,0.00,TxWx,2013-06-18 14:45:00,
2013-06-18 10:47:00,84.4,75.0,30.09,SE,141,4.3,4.3,74,0.00,,,0.00,TxWx,2013-06-18 14:47:00,
2013-06-18 10:48:00,84.3,75.0,30.08,SE,141,7.4,8.0,74,0.00,,,0.00,TxWx,2013-06-18 14:48:00,
2013-06-18 10:50:00,84.4,75.0,30.09,SE,141,4.3,4.3,74,0.00,,,0.00,TxWx,2013-06-18 14:50:00,
2013-06-18 10:52:00,84.8,76.0,30.08,SSE,163,3.7,5.0,74,0.00,,,0.00,TxWx,2013-06-18 14:52:00,
2013-06-18 10:53:00,84.9,76.0,30.09,ESE,118,4.3,4.3,74,0.00,,,0.00,TxWx,2013-06-18 14:53:00,
2013-06-18 10:54:00,84.9,76.0,30.09,SE,141,5.0,5.0,74,0.00,,,0.00,TxWx,2013-06-18 14:54:00,
2013-06-18 10:58:00,84.1,74.0,30.09,SSE,163,6.2,6.2,72,0.00,,,0.00,TxWx,2013-06-18 14:58:00,
2013-06-18 10:59:00,84.4,74.0,30.09,South,186,6.8,6.8,73,0.00,,,0.00,TxWx,2013-06-18 14:59:00,
2013-06-18 11:00:00,84.3,74.0,30.09,SSE,163,5.6,5.6,73,0.00,,,0.00,TxWx,2013-06-18 15:00:00,
2013-06-18 11:02:00,84.3,74.0,30.09,SE,141,3.1,3.7,73,0.00,,,0.00,TxWx,2013-06-18 15:02:00,
2013-06-18 11:04:00,84.1,74.0,30.09,SSE,163,8.7,8.7,72,0.00,,,0.00,TxWx,2013-06-18 15:04:00,
2013-06-18 11:05:00,84.8,75.0,30.09,SSE,163,3.7,3.7,73,0.00,,,0.00,TxWx,2013-06-18 15:05:00,
2013-06-18 11:06:00,84.4,74.0,30.09,SE,141,5.0,6.2,73,0.00,,,0.00,TxWx,2013-06-18 15:06:00,
2013-06-18 11:09:00,84.5,74.0,30.09,SE,141,5.6,7.4,73,0.00,,,0.00,TxWx,2013-06-18 15:09:00,
2013-06-18 11:11:00,84.4,74.0,30.09,SSE,163,7.4,7.4,73,0.00,,,0.00,TxWx,2013-06-18 15:11:00,
2013-06-18 11:12:00,84.1,74.0,30.09,SSE,163,5.6,6.8,73,0.00,,,0.00,TxWx,2013-06-18 15:12:00,
2013-06-18 11:14:00,84.5,76.0,30.09,SE,141,6.8,6.8,74,0.00,,,0.00,TxWx,2013-06-18 15:14:00,
2013-06-18 11:16:00,84.5,76.0,30.09,SSE,163,5.6,6.8,74,0.00,,,0.00,TxWx,2013-06-18 15:16:00,
2013-06-18 11:20:00,84.6,76.0,30.09,SSE,163,9.3,9.3,74,0.00,,,0.00,TxWx,2013-06-18 15:20:00,
2013-06-18 11:21:00,84.4,75.0,30.09,SSE,163,8.7,8.7,74,0.00,,,0.00,TxWx,2013-06-18 15:21:00,
2013-06-18 11:26:00,84.0,74.0,30.09,South,186,8.7,9.3,73,0.00,,,0.00,TxWx,2013-06-18 15:26:00,
2013-06-18 11:27:00,84.1,75.0,30.09,SSE,163,8.0,8.7,74,0.00,,,0.00,TxWx,2013-06-18 15:27:00,
2013-06-18 11:28:00,84.0,74.0,30.09,SSE,163,8.7,9.3,73,0.00,,,0.00,TxWx,2013-06-18 15:28:00,
2013-06-18 11:32:00,83.7,74.0,30.09,SSE,163,9.3,9.9,73,0.00,,,0.00,TxWx,2013-06-18 15:32:00,
2013-06-18 11:34:00,84.0,74.0,30.09,SSE,163,8.7,9.3,73,0.00,,,0.00,TxWx,2013-06-18 15:34:00,
2013-06-18 11:37:00,84.4,74.0,30.09,ESE,118,6.8,6.8,73,0.00,,,0.00,TxWx,2013-06-18 15:37:00,
2013-06-18 11:39:00,84.5,74.0,30.09,SE,141,7.4,8.0,72,0.00,,,0.00,TxWx,2013-06-18 15:39:00,
2013-06-18 11:40:00,84.3,74.0,30.09,SE,141,9.3,9.3,72,0.00,,,0.00,TxWx,2013-06-18 15:40:00,
2013-06-18 11:42:00,84.7,75.0,30.09,SE,141,6.8,6.8,72,0.00,,,0.00,TxWx,2013-06-18 15:42:00,
2013-06-18 11:44:00,84.4,74.0,30.09,SE,141,5.6,5.6,71,0.00,,,0.00,TxWx,2013-06-18 15:44:00,
2013-06-18 11:45:00,84.5,75.0,30.09,SSE,163,6.8,6.8,72,0.00,,,0.00,TxWx,2013-06-18 15:45:00,
2013-06-18 11:48:00,84.5,75.0,30.09,SE,141,6.2,6.8,72,0.00,,,0.00,TxWx,2013-06-18 15:48:00,
2013-06-18 11:50:00,84.4,74.0,30.09,SSE,163,6.8,6.8,72,0.00,,,0.00,TxWx,2013-06-18 15:50:00,
2013-06-18 11:51:00,84.7,75.0,30.09,SSE,163,8.7,8.7,72,0.00,,,0.00,TxWx,2013-06-18 15:51:00,
2013-06-18 11:55:00,84.9,75.0,30.09,ESE,118,6.8,7.4,72,0.00,,,0.00,TxWx,2013-06-18 15:55:00,
2013-06-18 11:56:00,85.1,75.0,30.09,SE,141,5.0,5.6,72,0.00,,,0.00,TxWx,2013-06-18 15:56:00,
2013-06-18 11:57:00,84.9,75.0,30.09,SE,141,6.2,6.2,72,0.00,,,0.00,TxWx,2013-06-18 15:57:00,
2013-06-18 12:01:00,84.6,74.0,30.08,SE,141,7.4,8.0,71,0.00,,,0.00,TxWx,2013-06-18 16:01:00,
2013-06-18 12:02:00,84.7,74.0,30.08,SE,141,7.4,8.0,71,0.00,,,0.00,TxWx,2013-06-18 16:02:00,
2013-06-18 12:03:00,84.6,75.0,30.08,ESE,118,6.8,7.4,72,0.00,,,0.00,TxWx,2013-06-18 16:03:00,
2013-06-18 12:04:00,84.6,75.0,30.08,SE,141,7.4,7.4,72,0.00,,,0.00,TxWx,2013-06-18 16:04:00,
2013-06-18 12:06:00,84.4,74.0,30.08,SE,141,9.3,9.9,73,0.00,,,0.00,TxWx,2013-06-18 16:06:00,
2013-06-18 12:07:00,84.5,75.0,30.08,SE,141,7.4,8.0,73,0.00,,,0.00,TxWx,2013-06-18 16:07:00,
2013-06-18 12:10:00,84.7,75.0,30.08,SE,141,6.8,8.0,73,0.00,,,0.00,TxWx,2013-06-18 16:10:00,
2013-06-18 12:11:00,85.0,75.0,30.08,SE,141,5.0,5.6,73,0.00,,,0.00,TxWx,2013-06-18 16:11:00,
2013-06-18 12:13:00,84.9,75.0,30.08,SE,141,5.0,5.0,73,0.00,,,0.00,TxWx,2013-06-18 16:13:00,
2013-06-18 12:15:00,85.1,76.0,30.08,SE,141,6.2,6.2,74,0.00,,,0.00,TxWx,2013-06-18 16:15:00,
2013-06-18 12:18:00,84.7,75.0,30.08,SE,141,9.9,9.9,73,0.00,,,0.00,TxWx,2013-06-18 16:18:00,
2013-06-18 12:19:00,85.2,75.0,30.08,SE,141,5.6,5.6,73,0.00,,,0.00,TxWx,2013-06-18 16:19:00,
2013-06-18 12:20:00,85.1,76.0,30.08,ESE,118,6.2,6.2,74,0.00,,,0.00,TxWx,2013-06-18 16:20:00,
2013-06-18 12:22:00,85.0,75.0,30.08,SE,141,6.2,6.2,73,0.00,,,0.00,TxWx,2013-06-18 16:22:00,
2013-06-18 12:23:00,84.6,75.0,30.08,SE,141,8.7,8.7,73,0.00,,,0.00,TxWx,2013-06-18 16:23:00,
2013-06-18 12:26:00,84.9,75.0,30.08,SE,141,6.8,8.0,73,0.00,,,0.00,TxWx,2013-06-18 16:26:00,
2013-06-18 12:28:00,84.8,75.0,30.08,SSE,163,6.8,8.7,72,0.00,,,0.00,TxWx,2013-06-18 16:28:00,
2013-06-18 12:29:00,85.1,75.0,30.08,SE,141,5.6,5.6,73,0.00,,,0.00,TxWx,2013-06-18 16:29:00,
2013-06-18 12:30:00,85.3,75.0,30.08,ESE,118,5.6,5.6,73,0.00,,,0.00,TxWx,2013-06-18 16:30:00,
2013-06-18 12:33:00,85.0,75.0,30.08,SSE,163,8.0,8.0,73,0.00,,,0.00,TxWx,2013-06-18 16:33:00,
2013-06-18 12:35:00,84.6,75.0,30.08,SE,141,8.7,9.9,72,0.00,,,0.00,TxWx,2013-06-18 16:35:00,
2013-06-18 12:37:00,84.5,74.0,30.08,SE,141,7.4,9.9,72,0.00,,,0.00,TxWx,2013-06-18 16:37:00,
2013-06-18 12:38:00,84.7,75.0,30.08,SE,141,8.0,8.0,72,0.00,,,0.00,TxWx,2013-06-18 16:38:00,
2013-06-18 12:39:00,84.7,75.0,30.08,SE,141,6.2,6.8,72,0.00,,,0.00,TxWx,2013-06-18 16:39:00,
2013-06-18 12:41:00,84.9,75.0,30.08,South,186,6.8,7.4,73,0.00,,,0.00,TxWx,2013-06-18 16:41:00,
2013-06-18 12:42:00,85.2,75.0,30.08,SE,141,5.0,5.0,73,0.00,,,0.00,TxWx,2013-06-18 16:42:00,
2013-06-18 12:43:00,84.6,75.0,30.08,SSE,163,7.4,8.0,73,0.00,,,0.00,TxWx,2013-06-18 16:43:00,
2013-06-18 12:44:00,84.7,75.0,30.08,South,186,7.4,8.7,73,0.00,,,0.00,TxWx,2013-06-18 16:44:00,
2013-06-18 12:47:00,84.4,74.0,30.08,SE,141,5.6,7.4,72,0.00,,,0.00,TxWx,2013-06-18 16:47:00,
2013-06-18 12:50:00,84.2,74.0,30.08,SE,141,11.8,11.8,72,0.00,,,0.00,TxWx,2013-06-18 16:50:00,
2013-06-18 12:52:00,84.4,74.0,30.08,SSE,163,8.7,8.7,73,0.00,,,0.00,TxWx,2013-06-18 16:52:00,
2013-06-18 12:55:00,84.2,74.0,30.08,SSE,163,8.7,8.7,73,0.00,,,0.00,TxWx,2013-06-18 16:55:00,
2013-06-18 12:57:00,84.5,75.0,30.08,SSE,163,5.6,7.4,73,0.00,,,0.00,TxWx,2013-06-18 16:57:00,
2013-06-18 12:58:00,84.5,74.0,30.08,SE,141,8.7,9.3,73,0.00,,,0.00,TxWx,2013-06-18 16:58:00,
2013-06-18 13:00:00,84.9,75.0,30.07,SE,141,6.8,7.4,73,0.00,,,0.00,TxWx,2013-06-18 17:00:00,
2013-06-18 13:01:00,85.1,75.0,30.08,SE,141,8.7,8.7,73,0.00,,,0.00,TxWx,2013-06-18 17:01:00,
2013-06-18 13:02:00,84.8,75.0,30.07,SE,141,8.0,8.7,72,0.00,,,0.00,TxWx,2013-06-18 17:02:00,
2013-06-18 13:03:00,84.8,75.0,30.07,ESE,118,9.9,9.9,73,0.00,,,0.00,TxWx,2013-06-18 17:03:00,
2013-06-18 13:06:00,85.0,75.0,30.07,SE,141,6.8,6.8,73,0.00,,,0.00,TxWx,2013-06-18 17:06:00,
2013-06-18 13:08:00,85.0,75.0,30.07,SE,141,8.7,8.7,73,0.00,,,0.00,TxWx,2013-06-18 17:08:00,
2013-06-18 13:11:00,85.1,75.0,30.07,South,186,6.2,6.8,73,0.00,,,0.00,TxWx,2013-06-18 17:11:00,
2013-06-18 13:13:00,84.6,75.0,30.07,SSE,163,8.7,9.9,72,0.00,,,0.00,TxWx,2013-06-18 17:13:00,
2013-06-18 13:15:00,85.0,75.0,30.07,SE,141,8.7,8.7,72,0.00,,,0.00,TxWx,2013-06-18 17:15:00,
2013-06-18 13:17:00,84.9,75.0,30.07,SE,141,8.0,8.0,72,0.00,,,0.00,TxWx,2013-06-18 17:17:00,
2013-06-18 13:19:00,84.8,75.0,30.07,SE,141,9.3,9.9,72,0.00,,,0.00,TxWx,2013-06-18 17:19:00,
2013-06-18 13:20:00,84.9,75.0,30.07,SSE,163,8.7,8.7,72,0.00,,,0.00,TxWx,2013-06-18 17:20:00,
2013-06-18 13:22:00,84.8,74.0,30.07,SE,141,7.4,9.3,71,0.00,,,0.00,TxWx,2013-06-18 17:22:00,
2013-06-18 13:25:00,84.8,74.0,30.07,SE,141,7.4,8.7,71,0.00,,,0.00,TxWx,2013-06-18 17:25:00,
2013-06-18 13:26:00,84.5,74.0,30.07,SE,141,8.7,9.3,71,0.00,,,0.00,TxWx,2013-06-18 17:26:00,
2013-06-18 13:27:00,85.0,74.0,30.07,SE,141,9.3,9.3,71,0.00,,,0.00,TxWx,2013-06-18 17:27:00,
2013-06-18 13:30:00,84.4,74.0,30.07,ESE,118,8.0,9.3,71,0.00,,,0.00,TxWx,2013-06-18 17:30:00,
2013-06-18 13:31:00,84.7,75.0,30.07,ESE,118,6.8,6.8,72,0.00,,,0.00,TxWx,2013-06-18 17:31:00,
2013-06-18 13:34:00,85.2,75.0,30.07,ESE,118,7.4,7.4,72,0.00,,,0.00,TxWx,2013-06-18 17:34:00,
2013-06-18 13:35:00,85.0,74.0,30.07,SE,141,11.1,11.1,71,0.00,,,0.00,TxWx,2013-06-18 17:35:00,
2013-06-18 13:36:00,85.1,74.0,30.07,SE,141,7.4,8.0,71,0.00,,,0.00,TxWx,2013-06-18 17:36:00,
2013-06-18 13:37:00,84.5,74.0,30.07,SE,141,8.7,8.7,70,0.00,,,0.00,TxWx,2013-06-18 17:37:00,
2013-06-18 13:40:00,84.9,74.0,30.07,SSE,163,10.5,10.5,71,0.00,,,0.00,TxWx,2013-06-18 17:40:00,
2013-06-18 13:41:00,85.3,74.0,30.07,SSE,163,7.4,8.7,71,0.00,,,0.00,TxWx,2013-06-18 17:41:00,
2013-06-18 13:44:00,85.5,75.0,30.07,SE,141,5.6,5.6,72,0.00,,,0.00,TxWx,2013-06-18 17:44:00,
2013-06-18 13:45:00,85.3,75.0,30.07,SE,141,7.4,7.4,72,0.00,,,0.00,TxWx,2013-06-18 17:45:00,
2013-06-18 13:47:00,85.2,75.0,30.07,East,96,6.8,8.7,72,0.00,,,0.00,TxWx,2013-06-18 17:47:00,
2013-06-18 13:49:00,85.1,75.0,30.07,SE,141,8.0,9.3,72,0.00,,,0.00,TxWx,2013-06-18 17:49:00,
2013-06-18 13:50:00,85.0,75.0,30.07,SSE,163,11.1,11.1,72,0.00,,,0.00,TxWx,2013-06-18 17:50:00,
2013-06-18 13:52:00,85.1,75.0,30.07,SE,141,8.7,8.7,72,0.00,,,0.00,TxWx,2013-06-18 17:52:00,
2013-06-18 13:53:00,85.3,75.0,30.07,SSE,163,7.4,8.7,73,0.00,,,0.00,TxWx,2013-06-18 17:53:00,
2013-06-18 13:54:00,85.3,75.0,30.07,SE,141,6.8,7.4,73,0.00,,,0.00,TxWx,2013-06-18 17:54:00,
2013-06-18 13:55:00,84.9,75.0,30.07,SE,141,6.8,8.0,72,0.00,,,0.00,TxWx,2013-06-18 17:55:00,
2013-06-18 13:58:00,85.0,75.0,30.07,SE,141,8.0,8.7,72,0.00,,,0.00,TxWx,2013-06-18 17:58:00,
2013-06-18 13:59:00,85.1,75.0,30.07,SE,141,8.7,8.7,72,0.00,,,0.00,TxWx,2013-06-18 17:59:00,
2013-06-18 14:00:00,85.1,75.0,30.07,SE,141,8.0,8.0,72,0.00,,,0.00,TxWx,2013-06-18 18:00:00,
2013-06-18 14:02:00,85.0,75.0,30.07,SE,141,6.2,8.7,72,0.00,,,0.00,TxWx,2013-06-18 18:02:00,
2013-06-18 14:04:00,85.3,75.0,30.07,SE,141,9.9,9.9,73,0.00,,,0.00,TxWx,2013-06-18 18:04:00,
2013-06-18 14:05:00,84.5,75.0,30.06,SE,141,10.5,13.0,72,0.00,,,0.00,TxWx,2013-06-18 18:05:00,
2013-06-18 14:06:00,84.5,75.0,30.07,ESE,118,9.9,11.1,72,0.00,,,0.00,TxWx,2013-06-18 18:06:00,
2013-06-18 14:08:00,84.9,75.0,30.07,SE,141,8.7,8.7,73,0.00,,,0.00,TxWx,2013-06-18 18:08:00,
2013-06-18 14:10:00,84.9,75.0,30.07,SE,141,11.1,11.1,73,0.00,,,0.00,TxWx,2013-06-18 18:10:00,
2013-06-18 14:11:00,84.8,75.0,30.06,SE,141,10.5,11.1,72,0.00,,,0.00,TxWx,2013-06-18 18:11:00,
2013-06-18 14:12:00,84.9,75.0,30.06,SSE,163,8.7,8.7,73,0.00,,,0.00,TxWx,2013-06-18 18:12:00,
2013-06-18 14:14:00,85.1,75.0,30.07,SSE,163,8.0,8.7,73,0.00,,,0.00,TxWx,2013-06-18 18:14:00,
2013-06-18 14:15:00,84.8,75.0,30.06,ESE,118,9.9,9.9,72,0.00,,,0.00,TxWx,2013-06-18 18:15:00,
2013-06-18 14:16:00,85.1,75.0,30.06,ESE,118,8.7,8.7,73,0.00,,,0.00,TxWx,2013-06-18 18:16:00,
2013-06-18 14:17:00,85.0,75.0,30.06,SSE,163,11.1,11.1,72,0.00,,,0.00,TxWx,2013-06-18 18:17:00,
2013-06-18 14:19:00,84.6,75.0,30.06,SE,141,8.7,8.7,72,0.00,,,0.00,TxWx,2013-06-18 18:19:00,
2013-06-18 14:20:00,84.9,75.0,30.06,SE,141,13.0,13.0,72,0.00,,,0.00,TxWx,2013-06-18 18:20:00,
2013-06-18 14:21:00,84.8,75.0,30.06,SE,141,9.3,9.3,72,0.00,,,0.00,TxWx,2013-06-18 18:21:00,
2013-06-18 14:23:00,84.8,75.0,30.06,SE,141,9.3,10.5,72,0.00,,,0.00,TxWx,2013-06-18 18:23:00,
2013-06-18 14:25:00,84.9,75.0,30.06,SE,141,9.3,9.9,72,0.00,,,0.00,TxWx,2013-06-18 18:25:00,
2013-06-18 14:26:00,85.0,74.0,30.06,ESE,118,8.0,8.7,71,0.00,,,0.00,TxWx,2013-06-18 18:26:00,
2013-06-18 14:27:00,85.0,75.0,30.06,SSE,163,9.3,9.3,72,0.00,,,0.00,TxWx,2013-06-18 18:27:00,
2013-06-18 14:29:00,84.9,75.0,30.06,SE,141,8.7,8.7,72,0.00,,,0.00,TxWx,2013-06-18 18:29:00,
2013-06-18 14:30:00,84.8,75.0,30.06,SE,141,9.9,9.9,72,0.00,,,0.00,TxWx,2013-06-18 18:30:00,
2013-06-18 14:32:00,85.3,75.0,30.06,SE,141,8.0,9.3,72,0.00,,,0.00,TxWx,2013-06-18 18:32:00,
2013-06-18 14:36:00,84.7,75.0,30.06,ESE,118,9.9,9.9,72,0.00,,,0.00,TxWx,2013-06-18 18:36:00,
2013-06-18 14:38:00,84.8,75.0,30.06,SSE,163,11.1,11.1,72,0.00,,,0.00,TxWx,2013-06-18 18:38:00,
2013-06-18 14:40:00,84.8,75.0,30.06,SE,141,9.3,10.5,72,0.00,,,0.00,TxWx,2013-06-18 18:40:00,
2013-06-18 14:41:00,84.8,75.0,30.06,South,186,8.0,8.7,72,0.00,,,0.00,TxWx,2013-06-18 18:41:00,
2013-06-18 14:42:00,84.9,75.0,30.06,SE,141,8.0,8.0,72,0.00,,,0.00,TxWx,2013-06-18 18:42:00,
2013-06-18 14:43:00,84.8,75.0,30.05,SSE,163,8.0,9.3,72,0.00,,,0.00,TxWx,2013-06-18 18:43:00,
2013-06-18 14:45:00,84.7,74.0,30.05,SE,141,8.0,8.7,71,0.00,,,0.00,TxWx,2013-06-18 18:45:00,
2013-06-18 14:47:00,85.2,75.0,30.05,SE,141,6.8,8.0,72,0.00,,,0.00,TxWx,2013-06-18 18:47:00,
2013-06-18 14:48:00,85.0,75.0,30.05,SE,141,8.7,8.7,72,0.00,,,0.00,TxWx,2013-06-18 18:48:00,
2013-06-18 14:49:00,84.8,74.0,30.05,SE,141,7.4,7.4,71,0.00,,,0.00,TxWx,2013-06-18 18:49:00,
2013-06-18 14:51:00,84.8,74.0,30.05,SSE,163,9.3,9.9,71,0.00,,,0.00,TxWx,2013-06-18 18:51:00,
2013-06-18 14:52:00,85.2,75.0,30.05,SE,141,7.4,7.4,72,0.00,,,0.00,TxWx,2013-06-18 18:52:00,
2013-06-18 14:54:00,85.0,75.0,30.05,SE,141,7.4,8.0,72,0.00,,,0.00,TxWx,2013-06-18 18:54:00,
2013-06-18 14:57:00,84.7,74.0,30.05,SSE,163,8.0,8.7,71,0.00,,,0.00,TxWx,2013-06-18 18:57:00,
2013-06-18 14:58:00,84.7,74.0,30.05,SE,141,9.9,11.1,71,0.00,,,0.00,TxWx,2013-06-18 18:58:00,
2013-06-18 15:00:00,84.7,74.0,30.05,SE,141,10.5,11.8,71,0.00,,,0.00,TxWx,2013-06-18 19:00:00,
2013-06-18 15:03:00,84.5,75.0,30.05,SE,141,10.5,12.4,72,0.00,,,0.00,TxWx,2013-06-18 19:03:00,
2013-06-18 15:04:00,84.7,75.0,30.05,SSE,163,9.9,11.1,72,0.00,,,0.00,TxWx,2013-06-18 19:04:00,
2013-06-18 15:07:00,84.6,75.0,30.05,SE,141,8.7,9.9,72,0.00,,,0.00,TxWx,2013-06-18 19:07:00,
2013-06-18 15:09:00,84.8,75.0,30.05,SE,141,8.7,9.3,72,0.00,,,0.00,TxWx,2013-06-18 19:09:00,
2013-06-18 15:10:00,84.8,75.0,30.05,SE,141,6.8,8.0,72,0.00,,,0.00,TxWx,2013-06-18 19:10:00,
2013-06-18 15:11:00,84.7,75.0,30.05,SSE,163,8.0,9.9,72,0.00,,,0.00,TxWx,2013-06-18 19:11:00,
2013-06-18 15:12:00,84.8,75.0,30.05,SSE,163,9.3,9.9,72,0.00,,,0.00,TxWx,2013-06-18 19:12:00,
2013-06-18 15:14:00,84.9,75.0,30.04,SSE,163,10.5,10.5,72,0.00,,,0.00,TxWx,2013-06-18 19:14:00,
2013-06-18 15:15:00,84.5,75.0,30.05,SE,141,9.9,11.8,72,0.00,,,0.00,TxWx,2013-06-18 19:15:00,
2013-06-18 15:17:00,84.7,75.0,30.04,SE,141,11.1,11.1,72,0.00,,,0.00,TxWx,2013-06-18 19:17:00,
2013-06-18 15:20:00,84.7,75.0,30.05,SE,141,10.5,10.5,72,0.00,,,0.00,TxWx,2013-06-18 19:20:00,
2013-06-18 15:21:00,84.7,75.0,30.05,SSE,163,8.7,9.3,72,0.00,,,0.00,TxWx,2013-06-18 19:21:00,
2013-06-18 15:22:00,85.1,75.0,30.04,SSE,163,10.5,10.5,72,0.00,,,0.00,TxWx,2013-06-18 19:22:00,
2013-06-18 15:23:00,85.0,75.0,30.04,SSE,163,7.4,7.4,72,0.00,,,0.00,TxWx,2013-06-18 19:23:00,
2013-06-18 15:25:00,85.0,75.0,30.04,SE,141,7.4,7.4,72,0.00,,,0.00,TxWx,2013-06-18 19:25:00,
2013-06-18 15:27:00,84.9,75.0,30.04,SE,141,9.9,9.9,72,0.00,,,0.00,TxWx,2013-06-18 19:27:00,
2013-06-18 15:28:00,84.6,75.0,30.04,SE,141,13.0,13.0,72,0.00,,,0.00,TxWx,2013-06-18 19:28:00,
2013-06-18 15:29:00,84.7,75.0,30.04,ESE,118,9.9,9.9,72,0.00,,,0.00,TxWx,2013-06-18 19:29:00,
2013-06-18 15:31:00,84.4,74.0,30.04,ESE,118,10.5,10.5,72,0.00,,,0.00,TxWx,2013-06-18 19:31:00,
2013-06-18 15:33:00,84.6,75.0,30.04,SE,141,13.0,13.0,73,0.00,,,0.00,TxWx,2013-06-18 19:33:00,
2013-06-18 15:34:00,84.3,74.0,30.04,SE,141,11.8,11.8,72,0.00,,,0.00,TxWx,2013-06-18 19:34:00,
2013-06-18 15:36:00,84.4,74.0,30.04,SE,141,9.3,10.5,72,0.00,,,0.00,TxWx,2013-06-18 19:36:00,
2013-06-18 15:39:00,84.4,74.0,30.04,SE,141,9.9,13.6,73,0.00,,,0.00,TxWx,2013-06-18 19:39:00,
2013-06-18 15:41:00,84.5,75.0,30.04,SE,141,12.4,12.4,72,0.00,,,0.00,TxWx,2013-06-18 19:41:00,
2013-06-18 15:43:00,84.3,74.0,30.03,SE,141,11.1,11.8,72,0.00,,,0.00,TxWx,2013-06-18 19:43:00,
2013-06-18 15:45:00,84.3,74.0,30.04,SE,141,12.4,12.4,73,0.00,,,0.00,TxWx,2013-06-18 19:45:00,
2013-06-18 15:46:00,84.3,74.0,30.04,SE,141,11.1,11.8,73,0.00,,,0.00,TxWx,2013-06-18 19:46:00,
2013-06-18 15:47:00,84.3,74.0,30.04,SE,141,12.4,13.0,72,0.00,,,0.00,TxWx,2013-06-18 19:47:00,
2013-06-18 15:48:00,84.3,74.0,30.03,SE,141,11.8,11.8,73,0.00,,,0.00,TxWx,2013-06-18 19:48:00,
2013-06-18 15:52:00,84.3,74.0,30.03,SE,141,10.5,11.8,73,0.00,,,0.00,TxWx,2013-06-18 19:52:00,
2013-06-18 15:53:00,84.2,74.0,30.03,SE,141,11.8,11.8,73,0.00,,,0.00,TxWx,2013-06-18 19:53:00,
2013-06-18 15:55:00,84.5,74.0,30.04,SE,141,10.5,10.5,73,0.00,,,0.00,TxWx,2013-06-18 19:55:00,
2013-06-18 15:56:00,84.5,74.0,30.04,ESE,118,9.3,10.5,73,0.00,,,0.00,TxWx,2013-06-18 19:56:00,
2013-06-18 15:58:00,84.3,74.0,30.04,East,96,9.9,10.5,73,0.00,,,0.00,TxWx,2013-06-18 19:58:00,
2013-06-18 15:59:00,84.3,74.0,30.03,SE,141,9.3,11.1,73,0.00,,,0.00,TxWx,2013-06-18 19:59:00,
2013-06-18 16:01:00,84.3,74.0,30.03,SE,141,11.1,11.1,73,0.00,,,0.00,TxWx,2013-06-18 20:01:00,
2013-06-18 16:02:00,84.6,75.0,30.03,SE,141,9.3,9.3,73,0.00,,,0.00,TxWx,2013-06-18 20:02:00,
2013-06-18 16:04:00,84.5,75.0,30.03,SE,141,8.0,9.3,73,0.00,,,0.00,TxWx,2013-06-18 20:04:00,
2013-06-18 16:06:00,84.5,74.0,30.03,SE,141,10.5,10.5,73,0.00,,,0.00,TxWx,2013-06-18 20:06:00,
2013-06-18 16:08:00,84.6,75.0,30.03,SE,141,11.1,11.1,73,0.00,,,0.00,TxWx,2013-06-18 20:08:00,
2013-06-18 16:09:00,84.4,74.0,30.03,SE,141,10.5,10.5,73,0.00,,,0.00,TxWx,2013-06-18 20:09:00,
2013-06-18 16:11:00,84.5,75.0,30.03,SE,141,12.4,12.4,73,0.00,,,0.00,TxWx,2013-06-18 20:11:00,
2013-06-18 16:12:00,84.6,76.0,30.03,SE,141,9.9,9.9,74,0.00,,,0.00,TxWx,2013-06-18 20:12:00,
2013-06-18 16:13:00,84.2,74.0,30.03,SE,141,13.6,13.6,73,0.00,,,0.00,TxWx,2013-06-18 20:13:00,
2013-06-18 16:16:00,84.5,75.0,30.03,SE,141,12.4,12.4,74,0.00,,,0.00,TxWx,2013-06-18 20:16:00,
2013-06-18 16:19:00,84.2,74.0,30.03,ESE,118,8.7,10.5,73,0.00,,,0.00,TxWx,2013-06-18 20:19:00,
2013-06-18 16:20:00,84.5,75.0,30.02,SE,141,10.5,10.5,74,0.00,,,0.00,TxWx,2013-06-18 20:20:00,
2013-06-18 16:21:00,84.3,74.0,30.03,SE,141,9.3,9.9,73,0.00,,,0.00,TxWx,2013-06-18 20:21:00,
2013-06-18 16:22:00,84.0,74.0,30.02,SE,141,11.8,13.6,73,0.00,,,0.00,TxWx,2013-06-18 20:22:00,
2013-06-18 16:24:00,84.3,74.0,30.02,SE,141,11.8,11.8,73,0.00,,,0.00,TxWx,2013-06-18 20:24:00,
2013-06-18 16:25:00,84.3,74.0,30.02,SE,141,13.0,13.0,73,0.00,,,0.00,TxWx,2013-06-18 20:25:00,
2013-06-18 16:26:00,84.3,74.0,30.02,SE,141,11.1,12.4,73,0.00,,,0.00,TxWx,2013-06-18 20:26:00,
2013-06-18 16:27:00,84.5,75.0,30.02,ESE,118,9.9,10.5,73,0.00,,,0.00,TxWx,2013-06-18 20:27:00,
2013-06-18 16:29:00,84.2,74.0,30.02,SSE,163,10.5,13.0,73,0.00,,,0.00,TxWx,2013-06-18 20:29:00,
2013-06-18 16:31:00,84.4,74.0,30.02,SE,141,7.4,9.9,73,0.00,,,0.00,TxWx,2013-06-18 20:31:00,
2013-06-18 16:32:00,84.3,74.0,30.02,SE,141,8.7,11.1,73,0.00,,,0.00,TxWx,2013-06-18 20:32:00,
2013-06-18 16:33:00,84.4,74.0,30.02,SSE,163,9.9,10.5,73,0.00,,,0.00,TxWx,2013-06-18 20:33:00,
2013-06-18 16:36:00,84.3,74.0,30.02,SE,141,13.0,13.0,73,0.00,,,0.00,TxWx,2013-06-18 20:36:00,
2013-06-18 16:37:00,84.5,74.0,30.02,SE,141,8.7,8.7,73,0.00,,,0.00,TxWx,2013-06-18 20:37:00,
2013-06-18 16:38:00,84.6,75.0,30.02,SE,141,9.3,9.3,73,0.00,,,0.00,TxWx,2013-06-18 20:38:00,
2013-06-18 16:39:00,84.3,74.0,30.02,SE,141,10.5,10.5,73,0.00,,,0.00,TxWx,2013-06-18 20:39:00,
2013-06-18 16:41:00,84.3,74.0,30.02,SE,141,10.5,11.8,72,0.00,,,0.00,TxWx,2013-06-18 20:41:00,
2013-06-18 16:43:00,84.4,74.0,30.02,SE,141,9.3,10.5,72,0.00,,,0.00,TxWx,2013-06-18 20:43:00,
2013-06-18 16:45:00,84.1,74.0,30.02,SE,141,13.0,14.2,72,0.00,,,0.00,TxWx,2013-06-18 20:45:00,
2013-06-18 16:46:00,84.1,74.0,30.02,SSE,163,13.6,13.6,72,0.00,,,0.00,TxWx,2013-06-18 20:46:00,
2013-06-18 16:47:00,84.3,74.0,30.02,ESE,118,8.7,9.3,72,0.00,,,0.00,TxWx,2013-06-18 20:47:00,
2013-06-18 16:48:00,84.6,75.0,30.02,SE,141,11.8,11.8,73,0.00,,,0.00,TxWx,2013-06-18 20:48:00,
2013-06-18 16:50:00,84.2,74.0,30.02,ESE,118,14.2,14.2,73,0.00,,,0.00,TxWx,2013-06-18 20:50:00,
2013-06-18 16:53:00,84.1,74.0,30.02,ESE,118,13.0,13.6,72,0.00,,,0.00,TxWx,2013-06-18 20:53:00,
2013-06-18 16:54:00,84.4,74.0,30.02,SE,141,11.8,11.8,73,0.00,,,0.00,TxWx,2013-06-18 20:54:00,
2013-06-18 16:56:00,84.5,75.0,30.02,SE,141,9.9,9.9,73,0.00,,,0.00,TxWx,2013-06-18 20:56:00,
2013-06-18 16:57:00,84.5,74.0,30.02,ESE,118,10.5,11.1,73,0.00,,,0.00,TxWx,2013-06-18 20:57:00,
2013-06-18 16:59:00,84.3,74.0,30.02,SE,141,8.0,8.0,73,0.00,,,0.00,TxWx,2013-06-18 20:59:00,
2013-06-18 17:00:00,84.5,74.0,30.02,ESE,118,10.5,11.1,73,0.00,,,0.00,TxWx,2013-06-18 21:00:00,
2013-06-18 17:02:00,84.2,74.0,30.02,SE,141,13.0,13.0,72,0.00,,,0.00,TxWx,2013-06-18 21:02:00,
2013-06-18 17:05:00,84.5,74.0,30.02,SSE,163,8.7,9.3,73,0.00,,,0.00,TxWx,2013-06-18 21:05:00,
2013-06-18 17:06:00,84.2,74.0,30.02,SE,141,11.1,11.8,72,0.00,,,0.00,TxWx,2013-06-18 21:06:00,
2013-06-18 17:08:00,84.4,74.0,30.02,ESE,118,11.1,11.1,72,0.00,,,0.00,TxWx,2013-06-18 21:08:00,
2013-06-18 17:11:00,84.4,74.0,30.02,SSE,163,11.1,12.4,73,0.00,,,0.00,TxWx,2013-06-18 21:11:00,
2013-06-18 17:12:00,84.3,74.0,30.02,SE,141,9.9,9.9,72,0.00,,,0.00,TxWx,2013-06-18 21:12:00,
2013-06-18 17:14:00,84.4,74.0,30.01,SSE,163,10.5,11.8,73,0.00,,,0.00,TxWx,2013-06-18 21:14:00,
2013-06-18 17:16:00,84.3,74.0,30.02,SE,141,12.4,12.4,72,0.00,,,0.00,TxWx,2013-06-18 21:16:00,
2013-06-18 17:17:00,84.1,74.0,30.01,SE,141,11.8,14.2,72,0.00,,,0.00,TxWx,2013-06-18 21:17:00,
2013-06-18 17:19:00,84.5,74.0,30.01,ESE,118,12.4,12.4,72,0.00,,,0.00,TxWx,2013-06-18 21:19:00,
2013-06-18 17:21:00,84.1,74.0,30.01,SE,141,14.2,14.9,72,0.00,,,0.00,TxWx,2013-06-18 21:21:00,
2013-06-18 17:22:00,84.3,74.0,30.01,SSE,163,10.5,12.4,72,0.00,,,0.00,TxWx,2013-06-18 21:22:00,
2013-06-18 17:25:00,84.4,74.0,30.02,SE,141,8.7,9.9,72,0.00,,,0.00,TxWx,2013-06-18 21:25:00,
2013-06-18 17:26:00,84.6,75.0,30.01,SE,141,9.9,9.9,73,0.00,,,0.00,TxWx,2013-06-18 21:26:00,
2013-06-18 17:27:00,84.4,74.0,30.02,SE,141,9.3,9.3,72,0.00,,,0.00,TxWx,2013-06-18 21:27:00,
2013-06-18 17:28:00,84.4,74.0,30.02,SE,141,9.3,9.3,73,0.00,,,0.00,TxWx,2013-06-18 21:28:00,
2013-06-18 17:31:00,84.6,75.0,30.02,SSE,163,11.8,11.8,73,0.00,,,0.00,TxWx,2013-06-18 21:31:00,
2013-06-18 17:32:00,84.3,74.0,30.02,SE,141,9.3,9.9,72,0.00,,,0.00,TxWx,2013-06-18 21:32:00,
2013-06-18 17:33:00,84.1,74.0,30.02,SE,141,9.9,9.9,72,0.00,,,0.00,TxWx,2013-06-18 21:33:00,
2013-06-18 17:35:00,84.4,74.0,30.02,SSE,163,8.7,8.7,73,0.00,,,0.00,TxWx,2013-06-18 21:35:00,
2013-06-18 17:37:00,84.4,74.0,30.02,SE,141,11.1,11.1,73,0.00,,,0.00,TxWx,2013-06-18 21:37:00,
2013-06-18 17:38:00,84.3,74.0,30.02,SSE,163,8.7,9.3,73,0.00,,,0.00,TxWx,2013-06-18 21:38:00,
2013-06-18 17:40:00,84.3,74.0,30.02,SE,141,8.7,8.7,73,0.00,,,0.00,TxWx,2013-06-18 21:40:00,
2013-06-18 17:41:00,84.3,74.0,30.02,ESE,118,9.3,10.5,73,0.00,,,0.00,TxWx,2013-06-18 21:41:00,
2013-06-18 17:42:00,84.5,75.0,30.02,SE,141,7.4,7.4,73,0.00,,,0.00,TxWx,2013-06-18 21:42:00,
2013-06-18 17:43:00,84.4,74.0,30.02,SE,141,8.0,9.9,73,0.00,,,0.00,TxWx,2013-06-18 21:43:00,
2013-06-18 17:47:00,84.5,75.0,30.02,SSE,163,6.8,8.7,73,0.00,,,0.00,TxWx,2013-06-18 21:47:00,
2013-06-18 17:48:00,84.2,74.0,30.02,SE,141,8.0,8.0,73,0.00,,,0.00,TxWx,2013-06-18 21:48:00,
2013-06-18 17:51:00,84.3,74.0,30.02,SE,141,9.3,9.3,73,0.00,,,0.00,TxWx,2013-06-18 21:51:00,
2013-06-18 17:53:00,84.3,74.0,30.02,SE,141,9.3,9.9,72,0.00,,,0.00,TxWx,2013-06-18 21:53:00,
2013-06-18 17:54:00,84.2,74.0,30.02,SE,141,10.5,10.5,72,0.00,,,0.00,TxWx,2013-06-18 21:54:00,
2013-06-18 17:55:00,84.2,74.0,30.02,SSE,163,9.9,13.0,72,0.00,,,0.00,TxWx,2013-06-18 21:55:00,
2013-06-18 17:56:00,84.2,74.0,30.02,SE,141,11.1,11.1,72,0.00,,,0.00,TxWx,2013-06-18 21:56:00,
2013-06-18 17:57:00,84.2,74.0,30.01,SE,141,9.9,10.5,72,0.00,,,0.00,TxWx,2013-06-18 21:57:00,
2013-06-18 17:58:00,84.3,74.0,30.01,SSE,163,10.5,10.5,73,0.00,,,0.00,TxWx,2013-06-18 21:58:00,
2013-06-18 18:00:00,84.0,74.0,30.01,ESE,118,11.8,13.0,73,0.00,,,0.00,TxWx,2013-06-18 22:00:00,
2013-06-18 18:02:00,84.0,74.0,30.01,SSE,163,10.5,12.4,73,0.00,,,0.00,TxWx,2013-06-18 22:02:00,
2013-06-18 18:03:00,83.9,74.0,30.01,ESE,118,11.1,12.4,72,0.00,,,0.00,TxWx,2013-06-18 22:03:00,
2013-06-18 18:06:00,84.2,74.0,30.01,SE,141,9.3,11.8,73,0.00,,,0.00,TxWx,2013-06-18 22:06:00,
2013-06-18 18:07:00,84.0,74.0,30.01,SE,141,13.0,13.6,73,0.00,,,0.00,TxWx,2013-06-18 22:07:00,
2013-06-18 18:09:00,83.9,74.0,30.01,SE,141,9.3,9.3,73,0.00,,,0.00,TxWx,2013-06-18 22:09:00,
2013-06-18 18:11:00,83.7,74.0,30.01,SE,141,13.0,13.0,73,0.00,,,0.00,TxWx,2013-06-18 22:11:00,
2013-06-18 18:12:00,84.1,74.0,30.01,SE,141,11.8,11.8,73,0.00,,,0.00,TxWx,2013-06-18 22:12:00,
2013-06-18 18:13:00,83.8,74.0,30.01,SE,141,10.5,13.0,72,0.00,,,0.00,TxWx,2013-06-18 22:13:00,
2013-06-18 18:14:00,84.0,74.0,30.01,SE,141,8.7,11.1,72,0.00,,,0.00,TxWx,2013-06-18 22:14:00,
2013-06-18 18:17:00,84.0,74.0,30.01,SSE,163,7.4,8.0,73,0.00,,,0.00,TxWx,2013-06-18 22:17:00,
2013-06-18 18:18:00,83.9,74.0,30.01,SE,141,12.4,13.0,73,0.00,,,0.00,TxWx,2013-06-18 22:18:00,
2013-06-18 18:20:00,83.9,74.0,30.01,ESE,118,11.8,11.8,73,0.00,,,0.00,TxWx,2013-06-18 22:20:00,
2013-06-18 18:22:00,84.0,74.0,30.01,SSE,163,9.3,11.1,73,0.00,,,0.00,TxWx,2013-06-18 22:22:00,
2013-06-18 18:24:00,84.1,74.0,30.01,SE,141,10.5,10.5,73,0.00,,,0.00,TxWx,2013-06-18 22:24:00,
2013-06-18 18:28:00,83.9,74.0,30.00,ESE,118,13.0,14.2,73,0.00,,,0.00,TxWx,2013-06-18 22:28:00,
2013-06-18 18:29:00,84.0,74.0,30.00,SE,141,10.5,13.0,73,0.00,,,0.00,TxWx,2013-06-18 22:29:00,
2013-06-18 18:31:00,84.0,75.0,30.00,SE,141,11.1,11.1,74,0.00,,,0.00,TxWx,2013-06-18 22:31:00,
2013-06-18 18:33:00,83.7,75.0,30.00,SE,141,14.9,14.9,74,0.00,,,0.00,TxWx,2013-06-18 22:33:00,
2013-06-18 18:34:00,83.6,74.0,30.00,SE,141,12.4,12.4,73,0.00,,,0.00,TxWx,2013-06-18 22:34:00,
2013-06-18 18:35:00,84.1,75.0,30.01,SE,141,6.8,7.4,74,0.00,,,0.00,TxWx,2013-06-18 22:35:00,
2013-06-18 18:39:00,83.8,75.0,30.01,SE,141,9.3,11.8,74,0.00,,,0.00,TxWx,2013-06-18 22:39:00,
2013-06-18 18:40:00,83.5,75.0,30.00,ESE,118,13.0,13.6,74,0.00,,,0.00,TxWx,2013-06-18 22:40:00,
2013-06-18 18:42:00,83.6,74.0,30.01,SE,141,13.0,13.0,73,0.00,,,0.00,TxWx,2013-06-18 22:42:00,
2013-06-18 18:43:00,83.8,75.0,30.01,SE,141,10.5,10.5,74,0.00,,,0.00,TxWx,2013-06-18 22:43:00,
2013-06-18 18:45:00,83.7,74.0,30.01,SE,141,9.9,11.8,73,0.00,,,0.00,TxWx,2013-06-18 22:45:00,
2013-06-18 18:47:00,83.8,74.0,30.01,SE,141,12.4,12.4,73,0.00,,,0.00,TxWx,2013-06-18 22:47:00,
2013-06-18 18:48:00,83.8,74.0,30.01,SE,141,9.9,12.4,73,0.00,,,0.00,TxWx,2013-06-18 22:48:00,
2013-06-18 18:49:00,84.0,74.0,30.01,SE,141,9.9,10.5,73,0.00,,,0.00,TxWx,2013-06-18 22:49:00,
2013-06-18 18:50:00,84.0,74.0,30.01,SE,141,10.5,10.5,73,0.00,,,0.00,TxWx,2013-06-18 22:50:00,
2013-06-18 18:51:00,84.0,75.0,30.01,SE,141,8.0,8.0,74,0.00,,,0.00,TxWx,2013-06-18 22:51:00,
2013-06-18 18:52:00,84.0,75.0,30.01,SSE,163,10.5,10.5,74,0.00,,,0.00,TxWx,2013-06-18 22:52:00,
2013-06-18 18:54:00,83.5,75.0,30.01,SE,141,12.4,13.0,74,0.00,,,0.00,TxWx,2013-06-18 22:54:00,
2013-06-18 18:55:00,83.5,74.0,30.01,SSE,163,11.8,11.8,73,0.00,,,0.00,TxWx,2013-06-18 22:55:00,
2013-06-18 18:57:00,83.7,74.0,30.01,SE,141,10.5,12.4,73,0.00,,,0.00,TxWx,2013-06-18 22:57:00,
2013-06-18 19:01:00,83.6,74.0,30.01,SE,141,14.2,14.9,73,0.00,,,0.00,TxWx,2013-06-18 23:01:00,
2013-06-18 19:03:00,83.8,75.0,30.01,SE,141,13.0,13.0,74,0.00,,,0.00,TxWx,2013-06-18 23:03:00,
2013-06-18 19:04:00,83.7,75.0,30.01,SE,141,13.0,13.0,74,0.00,,,0.00,TxWx,2013-06-18 23:04:00,
2013-06-18 19:07:00,83.5,74.0,30.01,SE,141,11.1,13.6,73,0.00,,,0.00,TxWx,2013-06-18 23:07:00,
2013-06-18 19:08:00,83.7,75.0,30.01,SE,141,9.9,9.9,74,0.00,,,0.00,TxWx,2013-06-18 23:08:00,
2013-06-18 19:10:00,83.6,74.0,30.01,SSE,163,9.3,10.5,73,0.00,,,0.00,TxWx,2013-06-18 23:10:00,
2013-06-18 19:14:00,83.7,75.0,30.01,SE,141,11.1,11.1,74,0.00,,,0.00,TxWx,2013-06-18 23:14:00,
2013-06-18 19:15:00,83.4,73.0,30.01,SE,141,13.6,14.2,73,0.00,,,0.00,TxWx,2013-06-18 23:15:00,
2013-06-18 19:18:00,83.6,75.0,30.01,SE,141,12.4,12.4,74,0.00,,,0.00,TxWx,2013-06-18 23:18:00,
2013-06-18 19:20:00,83.4,73.0,30.01,SE,141,10.5,12.4,73,0.00,,,0.00,TxWx,2013-06-18 23:20:00,
2013-06-18 19:21:00,83.5,74.0,30.01,SE,141,15.5,15.5,73,0.00,,,0.00,TxWx,2013-06-18 23:21:00,
2013-06-18 19:23:00,83.6,74.0,30.01,SE,141,10.5,10.5,73,0.00,,,0.00,TxWx,2013-06-18 23:23:00,
2013-06-18 19:25:00,83.5,75.0,30.02,SE,141,9.9,10.5,74,0.00,,,0.00,TxWx,2013-06-18 23:25:00,
2013-06-18 19:26:00,83.4,74.0,30.02,SSE,163,9.9,9.9,74,0.00,,,0.00,TxWx,2013-06-18 23:26:00,
2013-06-18 19:28:00,83.5,74.0,30.02,SE,141,11.1,11.1,74,0.00,,,0.00,TxWx,2013-06-18 23:28:00,
2013-06-18 19:30:00,83.3,74.0,30.02,SSE,163,9.3,10.5,74,0.00,,,0.00,TxWx,2013-06-18 23:30:00,
2013-06-18 19:31:00,83.5,74.0,30.02,SSE,163,10.5,11.8,74,0.00,,,0.00,TxWx,2013-06-18 23:31:00,
2013-06-18 19:32:00,83.4,74.0,30.02,SSE,163,9.3,11.8,74,0.00,,,0.00,TxWx,2013-06-18 23:32:00,
2013-06-18 19:34:00,83.4,74.0,30.02,SE,141,8.7,9.9,74,0.00,,,0.00,TxWx,2013-06-18 23:34:00,
2013-06-18 19:37:00,83.5,75.0,30.02,SSE,163,9.9,11.1,75,0.00,,,0.00,TxWx,2013-06-18 23:37:00,
2013-06-18 19:38:00,83.3,74.0,30.02,SSE,163,14.2,14.2,74,0.00,,,0.00,TxWx,2013-06-18 23:38:00,
2013-06-18 19:39:00,83.4,74.0,30.02,SE,141,9.3,10.5,75,0.00,,,0.00,TxWx,2013-06-18 23:39:00,
2013-06-18 19:41:00,83.6,75.0,30.02,SE,141,8.0,8.7,75,0.00,,,0.00,TxWx,2013-06-18 23:41:00,
2013-06-18 19:43:00,83.3,74.0,30.02,SE,141,10.5,10.5,75,0.00,,,0.00,TxWx,2013-06-18 23:43:00,
2013-06-18 19:44:00,83.6,75.0,30.02,ESE,118,9.9,10.5,75,0.00,,,0.00,TxWx,2013-06-18 23:44:00,
2013-06-18 19:45:00,83.2,74.0,30.02,SE,141,10.5,10.5,75,0.00,,,0.00,TxWx,2013-06-18 23:45:00,
2013-06-18 19:46:00,83.3,74.0,30.02,SSE,163,7.4,10.5,75,0.00,,,0.00,TxWx,2013-06-18 23:46:00,
2013-06-18 19:47:00,83.2,74.0,30.02,South,186,9.9,13.0,75,0.00,,,0.00,TxWx,2013-06-18 23:47:00,
2013-06-18 19:49:00,83.2,74.0,30.02,SE,141,7.4,8.7,75,0.00,,,0.00,TxWx,2013-06-18 23:49:00,
2013-06-18 19:51:00,83.2,74.0,30.02,SE,141,10.5,10.5,75,0.00,,,0.00,TxWx,2013-06-18 23:51:00,
2013-06-18 19:52:00,83.2,74.0,30.02,SE,141,11.1,11.1,75,0.00,,,0.00,TxWx,2013-06-18 23:52:00,
2013-06-18 19:53:00,83.2,74.0,30.02,SSE,163,9.3,9.3,75,0.00,,,0.00,TxWx,2013-06-18 23:53:00,
2013-06-18 19:56:00,83.4,74.0,30.02,SE,141,9.3,9.3,75,0.00,,,0.00,TxWx,2013-06-18 23:56:00,
2013-06-18 19:57:00,83.4,74.0,30.02,SE,141,9.9,11.1,76,0.00,,,0.00,TxWx,2013-06-18 23:57:00,
2013-06-18 19:58:00,83.2,74.0,30.02,SE,141,7.4,8.0,75,0.00,,,0.00,TxWx,2013-06-18 23:58:00,
2013-06-18 19:59:00,83.3,74.0,30.02,SSE,163,8.0,11.1,76,0.00,,,0.00,TxWx,2013-06-18 23:59:00,
2013-06-18 20:02:00,83.1,74.0,30.02,SSE,163,8.0,8.7,75,0.00,,,0.00,TxWx,2013-06-19 00:02:00,
2013-06-18 20:04:00,83.1,74.0,30.02,SSE,163,9.9,11.1,75,0.00,,,0.00,TxWx,2013-06-19 00:04:00,
2013-06-18 20:05:00,83.3,74.0,30.02,SE,141,9.3,9.3,75,0.00,,,0.00,TxWx,2013-06-19 00:05:00,
2013-06-18 20:07:00,83.2,74.0,30.02,SE,141,10.5,11.8,75,0.00,,,0.00,TxWx,2013-06-19 00:07:00,
2013-06-18 20:10:00,83.1,74.0,30.02,SSE,163,9.9,12.4,75,0.00,,,0.00,TxWx,2013-06-19 00:10:00,
2013-06-18 20:11:00,83.2,74.0,30.03,SE,141,11.8,11.8,75,0.00,,,0.00,TxWx,2013-06-19 00:11:00,
2013-06-18 20:12:00,83.4,74.0,30.03,SE,141,7.4,7.4,75,0.00,,,0.00,TxWx,2013-06-19 00:12:00,
2013-06-18 20:13:00,83.1,74.0,30.02,SE,141,11.8,11.8,75,0.00,,,0.00,TxWx,2013-06-19 00:13:00,
2013-06-18 20:16:00,83.3,74.0,30.03,SSE,163,9.9,10.5,76,0.00,,,0.00,TxWx,2013-06-19 00:16:00,
2013-06-18 20:17:00,83.0,74.0,30.02,SE,141,9.9,9.9,75,0.00,,,0.00,TxWx,2013-06-19 00:17:00,
2013-06-18 20:18:00,83.2,74.0,30.02,SE,141,12.4,12.4,75,0.00,,,0.00,TxWx,2013-06-19 00:18:00,
2013-06-18 20:19:00,83.1,74.0,30.02,SE,141,12.4,12.4,75,0.00,,,0.00,TxWx,2013-06-19 00:19:00,
2013-06-18 20:22:00,83.0,74.0,30.03,SE,141,9.9,9.9,76,0.00,,,0.00,TxWx,2013-06-19 00:22:00,
2013-06-18 20:24:00,83.0,74.0,30.02,SE,141,11.1,11.1,76,0.00,,,0.00,TxWx,2013-06-19 00:24:00,
2013-06-18 20:28:00,82.9,74.0,30.03,SSE,163,10.5,10.5,76,0.00,,,0.00,TxWx,2013-06-19 00:28:00,
2013-06-18 20:29:00,83.1,75.0,30.03,SSE,163,11.8,12.4,76,0.00,,,0.00,TxWx,2013-06-19 00:29:00,
2013-06-18 20:30:00,82.9,74.0,30.03,SE,141,7.4,10.5,76,0.00,,,0.00,TxWx,2013-06-19 00:30:00,
2013-06-18 20:33:00,83.2,75.0,30.03,SE,141,9.3,9.3,76,0.00,,,0.00,TxWx,2013-06-19 00:33:00,
2013-06-18 20:34:00,83.0,75.0,30.03,SE,141,9.3,9.3,76,0.00,,,0.00,TxWx,2013-06-19 00:34:00,
2013-06-18 20:35:00,83.1,75.0,30.03,SE,141,9.9,9.9,76,0.00,,,0.00,TxWx,2013-06-19 00:35:00,
2013-06-18 20:36:00,83.2,75.0,30.03,SE,141,7.4,9.3,76,0.00,,,0.00,TxWx,2013-06-19 00:36:00,
2013-06-18 20:39:00,83.0,75.0,30.02,SE,141,8.0,8.7,76,0.00,,,0.00,TxWx,2013-06-19 00:39:00,
2013-06-18 20:40:00,83.2,75.0,30.03,SSE,163,8.0,10.5,76,0.00,,,0.00,TxWx,2013-06-19 00:40:00,
2013-06-18 20:41:00,83.3,75.0,30.02,SE,141,8.0,8.0,77,0.00,,,0.00,TxWx,2013-06-19 00:41:00,
2013-06-18 20:42:00,83.3,75.0,30.03,SSE,163,9.9,9.9,77,0.00,,,0.00,TxWx,2013-06-19 00:42:00,
2013-06-18 20:44:00,83.0,75.0,30.02,SE,141,8.7,9.3,77,0.00,,,0.00,TxWx,2013-06-19 00:44:00,
2013-06-18 20:45:00,83.0,75.0,30.03,SSE,163,7.4,9.3,77,0.00,,,0.00,TxWx,2013-06-19 00:45:00,
2013-06-18 20:47:00,83.0,75.0,30.03,SE,141,11.8,11.8,77,0.00,,,0.00,TxWx,2013-06-19 00:47:00,
2013-06-18 20:48:00,82.8,75.0,30.03,SE,141,8.0,10.5,77,0.00,,,0.00,TxWx,2013-06-19 00:48:00,
2013-06-18 20:49:00,83.0,75.0,30.03,SE,141,8.0,8.0,77,0.00,,,0.00,TxWx,2013-06-19 00:49:00,
2013-06-18 20:51:00,83.0,75.0,30.03,SE,141,11.1,11.1,77,0.00,,,0.00,TxWx,2013-06-19 00:51:00,
2013-06-18 20:53:00,83.2,75.0,30.03,SE,141,10.5,11.8,77,0.00,,,0.00,TxWx,2013-06-19 00:53:00,
2013-06-18 20:55:00,82.9,75.0,30.03,SE,141,9.9,10.5,77,0.00,,,0.00,TxWx,2013-06-19 00:55:00,
2013-06-18 20:56:00,82.8,75.0,30.03,SE,141,9.9,11.8,77,0.00,,,0.00,TxWx,2013-06-19 00:56:00,
2013-06-18 20:57:00,82.9,75.0,30.03,SSE,163,11.8,11.8,77,0.00,,,0.00,TxWx,2013-06-19 00:57:00,
2013-06-18 20:58:00,83.1,75.0,30.03,SSE,163,11.8,11.8,77,0.00,,,0.00,TxWx,2013-06-19 00:58:00,
2013-06-18 21:00:00,82.9,75.0,30.03,SE,141,11.1,11.1,77,0.00,,,0.00,TxWx,2013-06-19 01:00:00,
2013-06-18 21:02:00,82.9,75.0,30.03,ESE,118,9.9,9.9,77,0.00,,,0.00,TxWx,2013-06-19 01:02:00,
2013-06-18 21:03:00,83.0,75.0,30.03,SSE,163,11.1,11.1,77,0.00,,,0.00,TxWx,2013-06-19 01:03:00,
2013-06-18 21:04:00,82.8,75.0,30.03,South,186,11.1,11.8,76,0.00,,,0.00,TxWx,2013-06-19 01:04:00,
2013-06-18 21:08:00,83.1,75.0,30.04,SE,141,8.7,8.7,76,0.00,,,0.00,TxWx,2013-06-19 01:08:00,
2013-06-18 21:09:00,83.2,75.0,30.04,SSE,163,7.4,8.0,77,0.00,,,0.00,TxWx,2013-06-19 01:09:00,
2013-06-18 21:14:00,83.1,75.0,30.03,ESE,118,8.0,9.9,76,0.00,,,0.00,TxWx,2013-06-19 01:14:00,
2013-06-18 21:16:00,83.0,74.0,30.03,SSE,163,11.8,11.8,76,0.00,,,0.00,TxWx,2013-06-19 01:16:00,
2013-06-18 21:17:00,83.2,75.0,30.03,SE,141,8.0,8.0,76,0.00,,,0.00,TxWx,2013-06-19 01:17:00,
2013-06-18 21:20:00,83.2,75.0,30.04,South,186,8.7,10.5,76,0.00,,,0.00,TxWx,2013-06-19 01:20:00,
2013-06-18 21:21:00,83.1,74.0,30.04,South,186,6.8,9.3,76,0.00,,,0.00,TxWx,2013-06-19 01:21:00,
2013-06-18 21:22:00,83.0,74.0,30.04,SSE,163,8.0,9.9,76,0.00,,,0.00,TxWx,2013-06-19 01:22:00,
2013-06-18 21:24:00,83.2,74.0,30.04,SSE,163,9.9,9.9,76,0.00,,,0.00,TxWx,2013-06-19 01:24:00,
2013-06-18 21:26:00,83.3,75.0,30.04,SSE,163,6.8,8.0,76,0.00,,,0.00,TxWx,2013-06-19 01:26:00,
2013-06-18 21:27:00,83.1,75.0,30.04,SE,141,5.0,5.0,76,0.00,,,0.00,TxWx,2013-06-19 01:27:00,
2013-06-18 21:28:00,83.0,74.0,30.04,SSE,163,8.0,8.7,76,0.00,,,0.00,TxWx,2013-06-19 01:28:00,
2013-06-18 21:31:00,83.0,74.0,30.04,SE,141,9.3,9.9,75,0.00,,,0.00,TxWx,2013-06-19 01:31:00,
2013-06-18 21:32:00,83.2,74.0,30.04,SSE,163,6.8,8.0,75,0.00,,,0.00,TxWx,2013-06-19 01:32:00,
2013-06-18 21:33:00,83.1,74.0,30.04,SE,141,9.3,9.3,75,0.00,,,0.00,TxWx,2013-06-19 01:33:00,
2013-06-18 21:35:00,83.2,74.0,30.04,SE,141,7.4,7.4,75,0.00,,,0.00,TxWx,2013-06-19 01:35:00,
2013-06-18 21:38:00,83.0,74.0,30.04,ESE,118,9.3,9.3,75,0.00,,,0.00,TxWx,2013-06-19 01:38:00,
2013-06-18 21:40:00,83.2,74.0,30.04,ESE,118,6.2,9.3,75,0.00,,,0.00,TxWx,2013-06-19 01:40:00,
2013-06-18 21:41:00,83.1,74.0,30.05,ESE,118,7.4,7.4,75,0.00,,,0.00,TxWx,2013-06-19 01:41:00,
2013-06-18 21:44:00,83.0,74.0,30.04,South,186,9.3,11.8,74,0.00,,,0.00,TxWx,2013-06-19 01:44:00,
2013-06-18 21:46:00,83.0,73.0,30.04,SSE,163,11.1,11.1,73,0.00,,,0.00,TxWx,2013-06-19 01:46:00,
2013-06-18 21:47:00,83.4,74.0,30.04,ESE,118,8.7,9.3,74,0.00,,,0.00,TxWx,2013-06-19 01:47:00,
2013-06-18 21:49:00,83.4,74.0,30.04,SSW,208,9.9,9.9,74,0.00,,,0.00,TxWx,2013-06-19 01:49:00,
2013-06-18 21:51:00,83.2,74.0,30.04,SE,141,9.3,12.4,74,0.00,,,0.00,TxWx,2013-06-19 01:51:00,
2013-06-18 21:52:00,83.1,74.0,30.04,SE,141,8.7,9.9,74,0.00,,,0.00,TxWx,2013-06-19 01:52:00,
2013-06-18 21:54:00,83.2,73.0,30.04,SE,141,7.4,10.5,73,0.00,,,0.00,TxWx,2013-06-19 01:54:00,
2013-06-18 21:56:00,83.3,73.0,30.04,SE,141,7.4,8.0,73,0.00,,,0.00,TxWx,2013-06-19 01:56:00,
2013-06-18 21:57:00,83.4,74.0,30.04,SSE,163,9.9,9.9,74,0.00,,,0.00,TxWx,2013-06-19 01:57:00,
2013-06-18 21:58:00,83.4,74.0,30.04,SE,141,6.8,8.0,74,0.00,,,0.00,TxWx,2013-06-19 01:58:00,
2013-06-18 21:59:00,83.3,74.0,30.04,SE,141,8.0,9.3,74,0.00,,,0.00,TxWx,2013-06-19 01:59:00,
2013-06-18 22:01:00,83.3,74.0,30.05,SSE,163,8.7,8.7,74,0.00,,,0.00,TxWx,2013-06-19 02:01:00,
2013-06-18 22:02:00,83.1,74.0,30.05,SE,141,8.0,8.0,74,0.00,,,0.00,TxWx,2013-06-19 02:02:00,
2013-06-18 22:03:00,83.2,74.0,30.04,SE,141,9.9,10.5,74,0.00,,,0.00,TxWx,2013-06-19 02:03:00,
2013-06-18 22:04:00,83.4,74.0,30.05,SE,141,7.4,8.0,74,0.00,,,0.00,TxWx,2013-06-19 02:04:00,
2013-06-18 22:05:00,83.3,74.0,30.05,SSE,163,13.0,13.0,75,0.00,,,0.00,TxWx,2013-06-19 02:05:00,
2013-06-18 22:07:00,83.2,74.0,30.04,SE,141,11.8,12.4,74,0.00,,,0.00,TxWx,2013-06-19 02:07:00,
2013-06-18 22:09:00,83.1,74.0,30.04,SE,141,9.9,9.9,74,0.00,,,0.00,TxWx,2013-06-19 02:09:00,
2013-06-18 22:12:00,83.3,74.0,30.04,South,186,7.4,9.3,75,0.00,,,0.00,TxWx,2013-06-19 02:12:00,
2013-06-18 22:14:00,83.0,74.0,30.04,SE,141,11.8,11.8,75,0.00,,,0.00,TxWx,2013-06-19 02:14:00,
2013-06-18 22:15:00,82.9,74.0,30.04,SW,231,12.4,12.4,74,0.00,,,0.00,TxWx,2013-06-19 02:15:00,
2013-06-18 22:16:00,83.0,74.0,30.04,SE,141,13.0,13.0,74,0.00,,,0.00,TxWx,2013-06-19 02:16:00,
2013-06-18 22:17:00,83.3,74.0,30.04,SSE,163,8.0,8.7,75,0.00,,,0.00,TxWx,2013-06-19 02:17:00,
2013-06-18 22:19:00,83.2,74.0,30.04,SSE,163,10.5,11.8,75,0.00,,,0.00,TxWx,2013-06-19 02:19:00,
2013-06-18 22:22:00,83.0,74.0,30.04,SSE,163,9.3,12.4,76,0.00,,,0.00,TxWx,2013-06-19 02:22:00,
2013-06-18 22:23:00,83.1,74.0,30.04,South,186,10.5,11.1,76,0.00,,,0.00,TxWx,2013-06-19 02:23:00,
2013-06-18 22:24:00,83.0,75.0,30.03,SE,141,11.8,11.8,76,0.00,,,0.00,TxWx,2013-06-19 02:24:00,
2013-06-18 22:27:00,83.0,75.0,30.03,SSE,163,12.4,12.4,76,0.00,,,0.00,TxWx,2013-06-19 02:27:00,
2013-06-18 22:28:00,83.1,74.0,30.03,SSE,163,10.5,11.8,76,0.00,,,0.00,TxWx,2013-06-19 02:28:00,
2013-06-18 22:29:00,83.1,75.0,30.03,SSE,163,11.1,12.4,76,0.00,,,0.00,TxWx,2013-06-19 02:29:00,
2013-06-18 22:30:00,83.1,75.0,30.03,SE,141,11.8,14.2,76,0.00,,,0.00,TxWx,2013-06-19 02:30:00,
2013-06-18 22:32:00,83.2,75.0,30.03,SE,141,9.9,11.1,77,0.00,,,0.00,TxWx,2013-06-19 02:32:00,
2013-06-18 22:34:00,82.9,75.0,30.03,SSE,163,13.6,13.6,76,0.00,,,0.00,TxWx,2013-06-19 02:34:00,
2013-06-18 22:36:00,83.1,75.0,30.03,SSE,163,11.1,11.1,77,0.00,,,0.00,TxWx,2013-06-19 02:36:00,
2013-06-18 22:41:00,83.2,75.0,30.04,SE,141,8.0,9.3,77,0.00,,,0.00,TxWx,2013-06-19 02:41:00,
2013-06-18 22:42:00,82.9,75.0,30.04,SSE,163,9.3,11.8,77,0.00,,,0.00,TxWx,2013-06-19 02:42:00,
2013-06-18 22:43:00,83.0,75.0,30.04,SSE,163,11.1,11.8,77,0.00,,,0.00,TxWx,2013-06-19 02:43:00,
2013-06-18 22:46:00,82.9,75.0,30.04,SE,141,8.0,9.9,77,0.00,,,0.00,TxWx,2013-06-19 02:46:00,
2013-06-18 22:47:00,82.8,75.0,30.04,SE,141,13.6,14.2,77,0.00,,,0.00,TxWx,2013-06-19 02:47:00,
2013-06-18 22:48:00,82.8,75.0,30.05,SE,141,11.8,11.8,77,0.00,,,0.00,TxWx,2013-06-19 02:48:00,
2013-06-18 22:49:00,82.9,75.0,30.04,SSE,163,11.8,11.8,77,0.00,,,0.00,TxWx,2013-06-19 02:49:00,
2013-06-18 22:51:00,82.7,75.0,30.05,SE,141,12.4,13.6,76,0.00,,,0.00,TxWx,2013-06-19 02:51:00,
2013-06-18 22:54:00,82.9,75.0,30.05,SE,141,12.4,12.4,76,0.00,,,0.00,TxWx,2013-06-19 02:54:00,
2013-06-18 22:56:00,83.2,75.0,30.05,SE,141,8.0,10.5,77,0.00,,,0.00,TxWx,2013-06-19 02:56:00,
2013-06-18 22:59:00,83.0,75.0,30.06,SSE,163,10.5,10.5,77,0.00,,,0.00,TxWx,2013-06-19 02:59:00,
2013-06-18 23:00:00,82.8,75.0,30.05,ESE,118,8.0,8.7,77,0.00,,,0.00,TxWx,2013-06-19 03:00:00,
2013-06-18 23:01:00,83.0,75.0,30.05,SSE,163,6.8,9.3,77,0.00,,,0.00,TxWx,2013-06-19 03:01:00,
2013-06-18 23:05:00,83.0,75.0,30.06,SSE,163,9.3,10.5,77,0.00,,,0.00,TxWx,2013-06-19 03:05:00,
2013-06-18 23:06:00,83.0,75.0,30.06,South,186,11.1,11.1,77,0.00,,,0.00,TxWx,2013-06-19 03:06:00,
2013-06-18 23:07:00,83.1,75.0,30.06,SE,141,8.7,8.7,77,0.00,,,0.00,TxWx,2013-06-19 03:07:00,
2013-06-18 23:08:00,83.2,75.0,30.06,SE,141,8.0,9.3,77,0.00,,,0.00,TxWx,2013-06-19 03:08:00,
2013-06-18 23:10:00,83.0,75.0,30.06,SSE,163,8.0,8.0,77,0.00,,,0.00,TxWx,2013-06-19 03:10:00,
2013-06-18 23:13:00,82.9,75.0,30.06,SE,141,5.6,6.8,77,0.00,,,0.00,TxWx,2013-06-19 03:13:00,
2013-06-18 23:16:00,82.9,75.0,30.07,SSE,163,5.0,5.0,77,0.00,,,0.00,TxWx,2013-06-19 03:16:00,
2013-06-18 23:17:00,82.8,75.0,30.07,SE,141,8.7,8.7,77,0.00,,,0.00,TxWx,2013-06-19 03:17:00,
2013-06-18 23:18:00,82.9,75.0,30.07,ESE,118,9.3,9.9,77,0.00,,,0.00,TxWx,2013-06-19 03:18:00,
2013-06-18 23:19:00,82.9,75.0,30.07,SE,141,7.4,8.0,77,0.00,,,0.00,TxWx,2013-06-19 03:19:00,
2013-06-18 23:23:00,82.9,75.0,30.07,SE,141,8.7,8.7,77,0.00,,,0.00,TxWx,2013-06-19 03:23:00,
2013-06-18 23:24:00,82.9,75.0,30.07,SSE,163,7.4,8.0,77,0.00,,,0.00,TxWx,2013-06-19 03:24:00,
2013-06-18 23:25:00,82.9,75.0,30.07,ESE,118,9.9,10.5,77,0.00,,,0.00,TxWx,2013-06-19 03:25:00,
2013-06-18 23:27:00,83.1,75.0,30.07,SSE,163,4.3,5.0,77,0.00,,,0.00,TxWx,2013-06-19 03:27:00,
2013-06-18 23:29:00,82.9,75.0,30.07,SSE,163,8.7,8.7,77,0.00,,,0.00,TxWx,2013-06-19 03:29:00,
2013-06-18 23:31:00,83.1,75.0,30.06,South,186,9.3,9.9,78,0.00,,,0.00,TxWx,2013-06-19 03:31:00,
2013-06-18 23:32:00,83.2,75.0,30.06,SE,141,6.8,8.0,78,0.00,,,0.00,TxWx,2013-06-19 03:32:00,
2013-06-18 23:33:00,82.8,75.0,30.06,SE,141,9.9,9.9,77,0.00,,,0.00,TxWx,2013-06-19 03:33:00,
2013-06-18 23:36:00,83.1,75.0,30.06,SE,141,9.9,9.9,78,0.00,,,0.00,TxWx,2013-06-19 03:36:00,
2013-06-18 23:37:00,83.0,75.0,30.06,South,186,10.5,11.8,78,0.00,,,0.00,TxWx,2013-06-19 03:37:00,
2013-06-18 23:38:00,83.0,75.0,30.06,SE,141,9.3,11.1,78,0.00,,,0.00,TxWx,2013-06-19 03:38:00,
2013-06-18 23:42:00,82.6,75.0,30.06,SSE,163,11.1,11.1,78,0.00,,,0.00,TxWx,2013-06-19 03:42:00,
2013-06-18 23:43:00,82.6,75.0,30.06,SE,141,9.3,9.9,78,0.00,,,0.00,TxWx,2013-06-19 03:43:00,
2013-06-18 23:44:00,82.8,75.0,30.06,SSE,163,8.7,8.7,78,0.00,,,0.00,TxWx,2013-06-19 03:44:00,
2013-06-18 23:45:00,82.8,75.0,30.06,South,186,6.8,6.8,78,0.00,,,0.00,TxWx,2013-06-19 03:45:00,
2013-06-18 23:50:00,82.7,75.0,30.06,SSE,163,6.8,8.0,78,0.00,,,0.00,TxWx,2013-06-19 03:50:00,
2013-06-18 23:51:00,82.8,75.0,30.06,South,186,10.5,10.5,78,0.00,,,0.00,TxWx,2013-06-19 03:51:00,
2013-06-18 23:54:00,82.8,75.0,30.06,SSE,163,9.3,9.9,78,0.00,,,0.00,TxWx,2013-06-19 03:54:00,
2013-06-18 23:55:00,82.7,75.0,30.06,South,186,7.4,8.0,78,0.00,,,0.00,TxWx,2013-06-19 03:55:00,
2013-06-18 23:56:00,82.9,75.0,30.06,South,186,5.6,8.0,78,0.00,,,0.00,TxWx,2013-06-19 03:56:00,
2013-06-18 23:57:00,82.9,75.0,30.06,SSE,163,3.7,3.7,78,0.00,,,0.00,TxWx,2013-06-19 03:57:00,